• Join FlightAware (Why Join?)
  • Login
  • US Flag 
01:18PM EDT


 

Airport Tracker/Info


-or-


 

Live Flight TrackerFlight Track Log ✈ AAL1459 ✈ 12-Sep-2013 ✈ KORD - KRNO

Flight Track Log - Related Links

Times and Time Zones

All times are in EDT time to prevent confusion due to time zone crossing. See the AAL1459 flight status page for this flight to view local times or setup timezone preferences in your user account.

Time Position Orientation Groundspeed Altitude Reporting Facility
EDT Latitude Longitude Course Direction KTS MPH feet Rate Location/Type
07:00PM 42.0167 -87.9500 323° Northwest 183 211 3,000  Level Chicago TRACON
07:01PM 42.0667 -88.0000 323° Northwest 226 260 5,000 1,620 Climbing Chicago TRACON
07:02PM 42.1281 -88.0583 325° Northwest 229 264 6,700 1,980 Climbing Chicago Center
07:03PM 42.1319 -88.1483 273° West 274 315 9,700 2,700 Climbing Chicago Center
07:04PM 42.0964 -88.2456 244° Southwest 291 335 12,300 2,340 Climbing Chicago Center
07:05PM 42.0625 -88.3583 248° West 318 366 14,600 2,400 Climbing Chicago Center
07:06PM 42.0161 -88.5058 247° West 356 410 17,400 2,280 Climbing Chicago Center
07:07PM 41.9753 -88.6356 247° West 378 435 19,400 2,100 Climbing Chicago Center
07:08PM 41.9347 -88.7658 247° West 381 438 21,800 2,040 Climbing Chicago Center
07:09PM 41.8925 -88.8978 247° West 386 444 23,700 1,740 Climbing Chicago Center
07:10PM 41.8486 -89.0331 247° West 393 452 25,500 1,500 Climbing Chicago Center
07:16PM 41.5860 -89.9280 247° West 400 460 34,500 1,440 Climbing FlightAware
07:17PM 41.5720 -90.0140 258° West 400 460 35,100 1,080 Climbing FlightAware
07:18PM 41.5600 -90.0940 259° West 398 458 35,800 960 Climbing FlightAware
07:19PM 41.5411 -90.2264 259° West 397 457 36,700 720 Climbing Chicago Center
07:20PM 41.5189 -90.3675 258° West 392 451 37,400 540 Climbing Chicago Center
07:21PM 41.4947 -90.5119 257° West 398 458 37,900 240 Climbing Chicago Center
07:22PM 41.4828 -90.6606 264° West 405 466 38,000  Climbing Chicago Center
07:23PM 41.4853 -90.8328 271° West 392 451 38,000  Level Chicago Center
07:24PM 41.4881 -90.9747 272° West 386 444 38,000  Level Chicago Center
07:25PM 41.4886 -91.1158 270° West 383 441 38,000  Level Chicago Center
07:26PM 41.4900 -91.2550 271° West 379 436 38,000  Level Chicago Center
07:27PM 41.4922 -91.4114 271° West 377 434 38,000  Level Chicago Center
07:28PM 41.4928 -91.5506 270° West 377 434 38,000  Level Chicago Center
07:29PM 41.4942 -91.6900 271° West 379 436 38,000  Level Chicago Center
07:30PM 41.4950 -91.8303 271° West 381 438 38,000  Level Chicago Center
07:31PM 41.4956 -92.0000 270° West 384 442 38,000  Level Chicago Center
07:32PM 41.4961 -92.1419 270° West 386 444 38,000  Level Chicago Center
07:33PM 41.4964 -92.2864 270° West 389 448 38,000  Level Chicago Center
07:39PM 41.4937 -93.0678 270° West 385 443 38,000  Level FlightAware ADS-B
07:39PM 41.4935 -93.0950 269° West 385 443 38,000  Level FlightAware ADS-B
07:39PM 41.4935 -93.0997 270° West 385 443 38,000  Level FlightAware ADS-B
07:39PM 41.4935 -93.1042 270° West 385 443 38,000  Level FlightAware ADS-B
07:39PM 41.4934 -93.1257 270° West 385 443 38,000  Level FlightAware ADS-B
07:39PM 41.4933 -93.1303 268° West 385 443 38,000  Level FlightAware ADS-B
07:39PM 41.4933 -93.1329 270° West 385 443 38,000  Level FlightAware ADS-B
07:39PM 41.4933 -93.1374 270° West 385 443 38,000  Level FlightAware ADS-B
07:39PM 41.4933 -93.1418 270° West 385 443 38,000  Level FlightAware ADS-B
07:39PM 41.4932 -93.1445 267° West 385 443 38,000  Level FlightAware ADS-B
07:39PM 41.4932 -93.1490 270° West 385 443 38,000  Level FlightAware ADS-B
07:39PM 41.4932 -93.1513 270° West 385 443 38,000  Level FlightAware ADS-B
07:39PM 41.4932 -93.1542 270° West 385 443 38,000  Level FlightAware ADS-B
07:39PM 41.4932 -93.1566 270° West 385 443 38,000  Level FlightAware ADS-B
07:39PM 41.4931 -93.1590 267° West 385 443 38,000  Level FlightAware ADS-B
07:39PM 41.4931 -93.1641 270° West 385 443 38,000  Level FlightAware ADS-B
07:39PM 41.4931 -93.1641 270° West 386 444 38,000  Level FlightAware ADS-B
07:39PM 41.4931 -93.1734 270° West 386 444 38,000  Level FlightAware ADS-B
07:39PM 41.4930 -93.1758 267° West 386 444 38,000  Level FlightAware ADS-B
07:39PM 41.4930 -93.1800 270° West 386 444 38,000  Level FlightAware ADS-B
07:39PM 41.4930 -93.1826 270° West 386 444 38,000  Level FlightAware ADS-B
07:39PM 41.4930 -93.1848 270° West 386 444 38,000  Level FlightAware ADS-B
07:39PM 41.4929 -93.1898 268° West 386 444 38,000  Level FlightAware ADS-B
07:39PM 41.4929 -93.1923 270° West 386 444 38,000  Level FlightAware ADS-B
07:39PM 41.4929 -93.1969 270° West 386 444 38,000  Level FlightAware ADS-B
07:39PM 41.4929 -93.2014 270° West 386 444 38,000  Level FlightAware ADS-B
07:39PM 41.4928 -93.2037 267° West 386 444 38,000  Level FlightAware ADS-B
07:40PM 41.4928 -93.2059 270° West 386 444 38,000  Level FlightAware ADS-B
07:40PM 41.4928 -93.2085 270° West 386 444 38,000  Level FlightAware ADS-B
07:40PM 41.4928 -93.2132 270° West 386 444 38,000  Level FlightAware ADS-B
07:41PM 41.4915 -93.3685 269° West 385 443 38,000  Level FlightAware ADS-B
07:41PM 41.4915 -93.3711 270° West 385 443 38,000  Level FlightAware ADS-B
07:41PM 41.4915 -93.3732 270° West 385 443 38,000  Level FlightAware ADS-B
07:41PM 41.4915 -93.3754 270° West 384 442 38,000  Level FlightAware ADS-B
07:41PM 41.4914 -93.3799 268° West 384 442 38,000  Level FlightAware ADS-B
07:41PM 41.4914 -93.3820 270° West 384 442 38,000  Level FlightAware ADS-B
07:41PM 41.4914 -93.3855 270° West 384 442 38,000  Level FlightAware ADS-B
07:41PM 41.4914 -93.3879 270° West 384 442 38,000  Level FlightAware ADS-B
07:41PM 41.4914 -93.3891 270° West 384 442 38,000  Level FlightAware ADS-B
07:41PM 41.4914 -93.3926 270° West 384 442 38,000  Level FlightAware ADS-B
07:41PM 41.4914 -93.3959 270° West 384 442 38,000  Level FlightAware ADS-B
07:41PM 41.4913 -93.3973 265° West 384 442 38,000  Level FlightAware ADS-B
07:41PM 41.4913 -93.4033 270° West 384 442 38,000  Level FlightAware ADS-B
07:41PM 41.4912 -93.4056 267° West 384 442 38,000  Level FlightAware ADS-B
07:41PM 41.4912 -93.4077 270° West 384 442 38,000  Level FlightAware ADS-B
07:41PM 41.4912 -93.4101 270° West 384 442 38,000  Level FlightAware ADS-B
07:41PM 41.4912 -93.4127 270° West 384 442 38,000  Level FlightAware ADS-B
07:41PM 41.4912 -93.4139 270° West 384 442 38,000  Level FlightAware ADS-B
07:41PM 41.4911 -93.4195 269° West 383 441 38,000  Level FlightAware ADS-B
07:41PM 41.4910 -93.4362 270° West 383 441 38,000  Level FlightAware ADS-B
07:41PM 41.4910 -93.4388 270° West 383 441 38,000  Level FlightAware ADS-B
07:41PM 41.4910 -93.4397 270° West 383 441 38,000  Level FlightAware ADS-B
07:41PM 41.4910 -93.4409 270° West 383 441 38,000  Level FlightAware ADS-B
07:41PM 41.4910 -93.4442 270° West 382 440 38,000  Level FlightAware ADS-B
07:41PM 41.4909 -93.4466 267° West 382 440 38,000  Level FlightAware ADS-B
07:41PM 41.4909 -93.4501 270° West 382 440 38,000  Level FlightAware ADS-B
07:41PM 41.4909 -93.4548 270° West 382 440 38,000  Level FlightAware ADS-B
07:41PM 41.4909 -93.4562 270° West 382 440 38,000  Level FlightAware ADS-B
07:41PM 41.4908 -93.4583 266° West 382 440 38,000  Level FlightAware ADS-B
07:41PM 41.4908 -93.4597 270° West 382 440 38,000  Level FlightAware ADS-B
07:41PM 41.4908 -93.4621 270° West 382 440 38,000  Level FlightAware ADS-B
07:41PM 41.4908 -93.4666 270° West 382 440 38,000  Level FlightAware ADS-B
07:41PM 41.4908 -93.4691 270° West 382 440 38,000  Level FlightAware ADS-B
07:41PM 41.4907 -93.4703 264° West 382 440 38,000  Level FlightAware ADS-B
07:41PM 41.4907 -93.4729 270° West 382 440 38,000  Level FlightAware ADS-B
07:41PM 41.4907 -93.4752 270° West 382 440 38,000  Level FlightAware ADS-B
07:41PM 41.4907 -93.4790 270° West 382 440 38,000  Level FlightAware ADS-B
07:41PM 41.4906 -93.4799 262° West 382 440 38,000  Level FlightAware ADS-B
07:41PM 41.4906 -93.4814 270° West 382 440 38,000  Level FlightAware ADS-B
07:41PM 41.4906 -93.4837 270° West 382 440 38,000  Level FlightAware ADS-B
07:41PM 41.4906 -93.4848 270° West 382 440 38,000  Level FlightAware ADS-B
07:42PM 41.4906 -93.4891 270° West 382 440 38,000  Level FlightAware ADS-B
07:42PM 41.4905 -93.4905 265° West 382 440 38,000  Level FlightAware ADS-B
07:42PM 41.4905 -93.4931 270° West 382 440 38,000  Level FlightAware ADS-B
07:42PM 41.4905 -93.4957 270° West 382 440 38,000  Level FlightAware ADS-B
07:42PM 41.4905 -93.4978 270° West 382 440 38,000  Level FlightAware ADS-B
07:42PM 41.4904 -93.4990 264° West 382 440 38,000  Level FlightAware ADS-B
07:42PM 41.4904 -93.5025 270° West 382 440 38,000  Level FlightAware ADS-B
07:42PM 41.4904 -93.5044 270° West 382 440 38,000  Level FlightAware ADS-B
07:42PM 41.4904 -93.5067 270° West 382 440 38,000  Level FlightAware ADS-B
07:42PM 41.4903 -93.5131 269° West 382 440 38,000  Level FlightAware ADS-B
07:42PM 41.4903 -93.5156 270° West 382 440 38,000  Level FlightAware ADS-B
07:42PM 41.4902 -93.5201 268° West 382 440 38,000  Level FlightAware ADS-B
07:43PM 41.4885 -93.6732 269° West 379 436 38,000  Level FlightAware ADS-B
07:43PM 41.4885 -93.6761 270° West 379 436 38,000  Level FlightAware ADS-B
07:43PM 41.4884 -93.6784 267° West 379 436 38,000  Level FlightAware ADS-B
07:43PM 41.4884 -93.6807 270° West 379 436 38,000  Level FlightAware ADS-B
07:43PM 41.4884 -93.6842 270° West 379 436 38,000  Level FlightAware ADS-B
07:43PM 41.4884 -93.6854 270° West 379 436 38,000  Level FlightAware ADS-B
07:43PM 41.4883 -93.6875 266° West 379 436 38,000  Level FlightAware ADS-B
07:43PM 41.4883 -93.6898 270° West 379 436 38,000  Level FlightAware ADS-B
07:43PM 41.4883 -93.6922 270° West 379 436 38,000  Level FlightAware ADS-B
07:43PM 41.4883 -93.6945 270° West 379 436 38,000  Level FlightAware ADS-B
07:43PM 41.4882 -93.6968 267° West 379 436 38,000  Level FlightAware ADS-B
07:43PM 41.4882 -93.6989 270° West 379 436 38,000  Level FlightAware ADS-B
07:43PM 41.4882 -93.7012 270° West 379 436 38,000  Level FlightAware ADS-B
07:43PM 41.4881 -93.7038 267° West 379 436 38,000  Level FlightAware ADS-B
07:43PM 41.4881 -93.7061 270° West 379 436 38,000  Level FlightAware ADS-B
07:43PM 41.4881 -93.7087 270° West 379 436 38,000  Level FlightAware ADS-B
07:43PM 41.4880 -93.7117 267° West 379 436 38,000  Level FlightAware ADS-B
07:43PM 41.4880 -93.7126 270° West 379 436 38,000  Level FlightAware ADS-B
07:43PM 41.4880 -93.7161 270° West 379 436 38,000  Level FlightAware ADS-B
07:43PM 41.4880 -93.7187 270° West 379 436 38,000  Level FlightAware ADS-B
07:43PM 41.4879 -93.7199 264° West 379 436 38,000  Level FlightAware ADS-B
07:43PM 41.4879 -93.7233 270° West 379 436 38,000  Level FlightAware ADS-B
07:43PM 41.4879 -93.7245 270° West 379 436 38,000  Level FlightAware ADS-B
07:43PM 41.4879 -93.7269 270° West 379 436 38,000  Level FlightAware ADS-B
07:43PM 41.4878 -93.7294 267° West 379 436 38,000  Level FlightAware ADS-B
07:43PM 41.4878 -93.7315 270° West 379 436 38,000  Level FlightAware ADS-B
07:43PM 41.4878 -93.7350 270° West 379 436 38,000  Level FlightAware ADS-B
07:43PM 41.4878 -93.7362 270° West 379 436 38,000  Level FlightAware ADS-B
07:43PM 41.4877 -93.7387 267° West 379 436 38,000  Level FlightAware ADS-B
07:43PM 41.4877 -93.7410 270° West 379 436 38,000  Level FlightAware ADS-B
07:43PM 41.4877 -93.7434 270° West 379 436 38,000  Level FlightAware ADS-B
07:43PM 41.4876 -93.7460 267° West 379 436 38,000  Level FlightAware ADS-B
07:43PM 41.4876 -93.7471 270° West 379 436 38,000  Level FlightAware ADS-B
07:43PM 41.4876 -93.7497 270° West 379 436 38,000  Level FlightAware ADS-B
07:43PM 41.4876 -93.7508 270° West 378 435 38,000  Level FlightAware ADS-B
07:43PM 41.4875 -93.7555 268° West 378 435 38,000  Level FlightAware ADS-B
07:43PM 41.4875 -93.7587 270° West 378 435 38,000  Level FlightAware ADS-B
07:43PM 41.4875 -93.7601 270° West 378 435 38,000  Level FlightAware ADS-B
07:43PM 41.4874 -93.7610 262° West 378 435 38,000  Level FlightAware ADS-B
07:43PM 41.4874 -93.7636 270° West 378 435 38,000  Level FlightAware ADS-B
07:43PM 41.4874 -93.7650 270° West 378 435 38,000  Level FlightAware ADS-B
07:44PM 41.4874 -93.7682 270° West 378 435 38,000  Level FlightAware ADS-B
07:44PM 41.4874 -93.7713 270° West 378 435 38,000  Level FlightAware ADS-B
07:44PM 41.4873 -93.7736 267° West 378 435 38,000  Level FlightAware ADS-B
07:44PM 41.4873 -93.7757 270° West 378 435 38,000  Level FlightAware ADS-B
07:44PM 41.4873 -93.7769 270° West 378 435 38,000  Level FlightAware ADS-B
07:44PM 41.4872 -93.7827 269° West 378 435 38,000  Level FlightAware ADS-B
07:44PM 41.4872 -93.7836 270° West 378 435 38,000  Level FlightAware ADS-B
07:44PM 41.4872 -93.7859 270° West 378 435 38,000  Level FlightAware ADS-B
07:44PM 41.4871 -93.7889 267° West 378 435 38,000  Level FlightAware ADS-B
07:44PM 41.4871 -93.7913 270° West 378 435 38,000  Level FlightAware ADS-B
07:44PM 41.4871 -93.7936 270° West 378 435 38,000  Level FlightAware ADS-B
07:44PM 41.4870 -93.7957 266° West 378 435 38,000  Level FlightAware ADS-B
07:44PM 41.4870 -93.7968 270° West 378 435 38,000  Level FlightAware ADS-B
07:44PM 41.4870 -93.7980 270° West 378 435 38,000  Level FlightAware ADS-B
07:44PM 41.4869 -93.8029 268° West 378 435 38,000  Level FlightAware ADS-B
07:44PM 41.4869 -93.8041 270° West 378 435 38,000  Level FlightAware ADS-B
07:44PM 41.4869 -93.8052 270° West 378 435 38,000  Level FlightAware ADS-B
07:44PM 41.4869 -93.8092 270° West 378 435 38,000  Level FlightAware ADS-B
07:44PM 41.4868 -93.8122 267° West 378 435 38,000  Level FlightAware ADS-B
07:44PM 41.4868 -93.8133 270° West 378 435 38,000  Level FlightAware ADS-B
07:44PM 41.4868 -93.8143 270° West 378 435 38,000  Level FlightAware ADS-B
07:44PM 41.4868 -93.8175 270° West 378 435 38,000  Level FlightAware ADS-B
07:44PM 41.4867 -93.8212 268° West 378 435 38,000  Level FlightAware ADS-B
07:44PM 41.4867 -93.8236 270° West 378 435 38,000  Level FlightAware ADS-B
07:45PM 41.4847 -93.9768 269° West 378 435 38,000  Level FlightAware ADS-B
07:45PM 41.4846 -93.9792 267° West 378 435 38,000  Level FlightAware ADS-B
07:45PM 41.4846 -93.9819 270° West 378 435 38,000  Level FlightAware ADS-B
07:45PM 41.4846 -93.9840 270° West 378 435 38,000  Level FlightAware ADS-B
07:45PM 41.4845 -93.9850 262° West 378 435 38,000  Level FlightAware ADS-B
07:45PM 41.4845 -93.9873 270° West 378 435 38,000  Level FlightAware ADS-B
07:45PM 41.4845 -93.9896 270° West 378 435 38,000  Level FlightAware ADS-B
07:45PM 41.4844 -93.9931 268° West 378 435 38,000  Level FlightAware ADS-B
07:45PM 41.4844 -93.9952 270° West 378 435 38,000  Level FlightAware ADS-B
07:45PM 41.4844 -93.9963 270° West 378 435 38,000  Level FlightAware ADS-B
07:45PM 41.4843 -93.9989 267° West 378 435 38,000  Level FlightAware ADS-B
07:45PM 41.4843 -94.0012 270° West 378 435 38,000  Level FlightAware ADS-B
07:45PM 41.4843 -94.0030 270° West 378 435 38,000  Level FlightAware ADS-B
07:45PM 41.4842 -94.0066 268° West 378 435 38,000  Level FlightAware ADS-B
07:45PM 41.4842 -94.0093 270° West 378 435 38,000  Level FlightAware ADS-B
07:45PM 41.4842 -94.0107 270° West 378 435 38,000  Level FlightAware ADS-B
07:45PM 41.4841 -94.0128 266° West 378 435 38,000  Level FlightAware ADS-B
07:45PM 41.4841 -94.0138 270° West 378 435 38,000  Level FlightAware ADS-B
07:45PM 41.4841 -94.0170 270° West 378 435 38,000  Level FlightAware ADS-B
07:45PM 41.4840 -94.0207 268° West 378 435 38,000  Level FlightAware ADS-B
07:45PM 41.4840 -94.0216 270° West 378 435 38,000  Level FlightAware ADS-B
07:45PM 41.4840 -94.0231 270° West 378 435 38,000  Level FlightAware ADS-B
07:45PM 41.4839 -94.0291 269° West 378 435 38,000  Level FlightAware ADS-B
07:45PM 41.4839 -94.0314 270° West 378 435 38,000  Level FlightAware ADS-B
07:45PM 41.4839 -94.0335 270° West 378 435 38,000  Level FlightAware ADS-B
07:45PM 41.4838 -94.0361 267° West 378 435 38,000  Level FlightAware ADS-B
07:45PM 41.4838 -94.0388 270° West 378 435 38,000  Level FlightAware ADS-B
07:45PM 41.4837 -94.0410 267° West 378 435 38,000  Level FlightAware ADS-B
07:45PM 41.4837 -94.0430 270° West 378 435 38,000  Level FlightAware ADS-B
07:45PM 41.4837 -94.0444 270° West 378 435 38,000  Level FlightAware ADS-B
07:46PM 41.4837 -94.0480 270° West 378 435 38,000  Level FlightAware ADS-B
07:46PM 41.4836 -94.0500 266° West 378 435 38,000  Level FlightAware ADS-B
07:46PM 41.4836 -94.0526 270° West 378 435 38,000  Level FlightAware ADS-B
07:46PM 41.4835 -94.0547 266° West 378 435 38,000  Level FlightAware ADS-B
07:46PM 41.4835 -94.0575 270° West 378 435 38,000  Level FlightAware ADS-B
07:46PM 41.4835 -94.0584 270° West 378 435 38,000  Level FlightAware ADS-B
07:46PM 41.4834 -94.0610 267° West 378 435 38,000  Level FlightAware ADS-B
07:46PM 41.4834 -94.0619 270° West 378 435 38,000  Level FlightAware ADS-B
07:46PM 41.4834 -94.0656 270° West 378 435 38,000  Level FlightAware ADS-B
07:46PM 41.4834 -94.0689 270° West 378 435 38,000  Level FlightAware ADS-B
07:46PM 41.4833 -94.0702 264° West 378 435 38,000  Level FlightAware ADS-B
07:46PM 41.4833 -94.0728 270° West 378 435 38,000  Level FlightAware ADS-B
07:46PM 41.4833 -94.0754 270° West 378 435 38,000  Level FlightAware ADS-B
07:46PM 41.4832 -94.0779 267° West 378 435 38,000  Level FlightAware ADS-B
07:46PM 41.4832 -94.0800 270° West 378 435 38,000  Level FlightAware ADS-B
07:46PM 41.4832 -94.0800 270° West 379 436 38,000  Level FlightAware ADS-B
07:46PM 41.4831 -94.0845 268° West 379 436 38,000  Level FlightAware ADS-B
07:46PM 41.4830 -94.0882 268° West 379 436 38,000  Level FlightAware ADS-B
07:46PM 41.4830 -94.0905 270° West 379 436 38,000  Level FlightAware ADS-B
07:46PM 41.4829 -94.0930 267° West 379 436 38,000  Level FlightAware ADS-B
07:46PM 41.4829 -94.0966 270° West 379 436 38,000  Level FlightAware ADS-B
07:46PM 41.4829 -94.0977 270° West 379 436 38,000  Level FlightAware ADS-B
07:46PM 41.4828 -94.0991 265° West 379 436 38,000  Level FlightAware ADS-B
07:46PM 41.4828 -94.1015 270° West 379 436 38,000  Level FlightAware ADS-B
07:46PM 41.4828 -94.1033 270° West 379 436 38,000  Level FlightAware ADS-B
07:46PM 41.4827 -94.1066 268° West 379 436 38,000  Level FlightAware ADS-B
07:46PM 41.4827 -94.1077 270° West 379 436 38,000  Level FlightAware ADS-B
07:46PM 41.4826 -94.1110 268° West 379 436 38,000  Level FlightAware ADS-B
07:46PM 41.4826 -94.1133 270° West 379 436 38,000  Level FlightAware ADS-B
07:46PM 41.4826 -94.1145 270° West 379 436 38,000  Level FlightAware ADS-B
07:46PM 41.4825 -94.1166 266° West 379 436 38,000  Level FlightAware ADS-B
07:46PM 41.4825 -94.1191 270° West 379 436 38,000  Level FlightAware ADS-B
07:46PM 41.4825 -94.1215 270° West 379 436 38,000  Level FlightAware ADS-B
07:46PM 41.4824 -94.1250 268° West 379 436 38,000  Level FlightAware ADS-B
07:46PM 41.4824 -94.1271 270° West 379 436 38,000  Level FlightAware ADS-B
07:47PM 41.4801 -94.2790 269° West 380 437 38,000  Level FlightAware ADS-B
07:47PM 41.4800 -94.2823 268° West 380 437 38,000  Level FlightAware ADS-B
07:47PM 41.4800 -94.2854 270° West 380 437 38,000  Level FlightAware ADS-B
07:47PM 41.4798 -94.2987 269° West 380 437 38,000  Level FlightAware ADS-B
07:47PM 41.4797 -94.2996 262° West 380 437 38,000  Level FlightAware ADS-B
07:47PM 41.4797 -94.3008 270° West 380 437 38,000  Level FlightAware ADS-B
07:48PM 41.4789 -94.3451 269° West 380 437 38,000  Level FlightAware ADS-B
07:48PM 41.4789 -94.3475 270° West 380 437 38,000  Level FlightAware ADS-B
07:48PM 41.4788 -94.3523 268° West 380 437 38,000  Level FlightAware ADS-B
07:48PM 41.4786 -94.3610 268° West 380 437 38,000  Level FlightAware ADS-B
07:48PM 41.4786 -94.3659 270° West 380 437 38,000  Level FlightAware ADS-B
07:48PM 41.4785 -94.3703 268° West 380 437 38,000  Level FlightAware ADS-B
07:48PM 41.4780 -94.4007 269° West 380 437 38,000  Level FlightAware ADS-B
07:48PM 41.4777 -94.4153 268° West 380 437 38,000  Level FlightAware ADS-B
07:48PM 41.4777 -94.4153 268° West 381 438 38,000  Level FlightAware ADS-B
07:48PM 41.4776 -94.4218 269° West 381 438 38,000  Level FlightAware ADS-B
07:48PM 41.4776 -94.4244 270° West 381 438 38,000  Level FlightAware ADS-B
07:49PM 41.4745 -94.5847 269° West 385 443 38,000  Level FlightAware ADS-B
07:49PM 41.4745 -94.5887 270° West 385 443 38,000  Level FlightAware ADS-B
07:49PM 41.4744 -94.5908 266° West 385 443 38,000  Level FlightAware ADS-B
07:49PM 41.4744 -94.5920 270° West 385 443 38,000  Level FlightAware ADS-B
07:49PM 41.4743 -94.5947 267° West 385 443 38,000  Level FlightAware ADS-B
07:49PM 41.4743 -94.5980 270° West 385 443 38,000  Level FlightAware ADS-B
07:49PM 41.4743 -94.5998 270° West 385 443 38,000  Level FlightAware ADS-B
07:49PM 41.4742 -94.6010 264° West 385 443 38,000  Level FlightAware ADS-B
07:49PM 41.4742 -94.6051 270° West 385 443 38,000  Level FlightAware ADS-B
07:49PM 41.4741 -94.6072 266° West 385 443 38,000  Level FlightAware ADS-B
07:50PM 41.4741 -94.6093 270° West 386 444 38,000  Level FlightAware ADS-B
07:50PM 41.4740 -94.6107 265° West 386 444 38,000  Level FlightAware ADS-B
07:50PM 41.4740 -94.6143 270° West 386 444 38,000  Level FlightAware ADS-B
07:50PM 41.4739 -94.6153 262° West 386 444 38,000  Level FlightAware ADS-B
07:50PM 41.4739 -94.6176 270° West 386 444 38,000  Level FlightAware ADS-B
07:50PM 41.4738 -94.6200 267° West 386 444 38,000  Level FlightAware ADS-B
07:50PM 41.4738 -94.6231 270° West 386 444 38,000  Level FlightAware ADS-B
07:50PM 41.4738 -94.6255 270° West 386 444 38,000  Level FlightAware ADS-B
07:50PM 41.4737 -94.6288 268° West 386 444 38,000  Level FlightAware ADS-B
07:50PM 41.4737 -94.6309 270° West 386 444 38,000  Level FlightAware ADS-B
07:50PM 41.4736 -94.6333 267° West 386 444 38,000  Level FlightAware ADS-B
07:50PM 41.4736 -94.6359 270° West 387 445 38,000  Level FlightAware ADS-B
07:50PM 41.4735 -94.6383 267° West 387 445 38,000  Level FlightAware ADS-B
07:50PM 41.4734 -94.6416 268° West 387 445 38,000  Level FlightAware ADS-B
07:50PM 41.4734 -94.6430 270° West 387 445 38,000  Level FlightAware ADS-B
07:50PM 41.4734 -94.6452 270° West 387 445 38,000  Level FlightAware ADS-B
07:50PM 41.4733 -94.6473 266° West 387 445 38,000  Level FlightAware ADS-B
07:50PM 41.4733 -94.6500 270° West 387 445 38,000  Level FlightAware ADS-B
07:50PM 41.4733 -94.6521 270° West 387 445 38,000  Level FlightAware ADS-B
07:50PM 41.4732 -94.6552 268° West 387 445 38,000  Level FlightAware ADS-B
07:50PM 41.4731 -94.6578 267° West 387 445 38,000  Level FlightAware ADS-B
07:50PM 41.4731 -94.6602 270° West 387 445 38,000  Level FlightAware ADS-B
07:50PM 41.4730 -94.6623 266° West 387 445 38,000  Level FlightAware ADS-B
07:50PM 41.4730 -94.6635 270° West 387 445 38,000  Level FlightAware ADS-B
07:50PM 41.4729 -94.6671 268° West 388 447 38,000  Level FlightAware ADS-B
07:50PM 41.4729 -94.6693 270° West 388 447 38,000  Level FlightAware ADS-B
07:50PM 41.4729 -94.6707 270° West 388 447 38,000  Level FlightAware ADS-B
07:50PM 41.4728 -94.6730 267° West 388 447 38,000  Level FlightAware ADS-B
07:50PM 41.4728 -94.6745 270° West 388 447 38,000  Level FlightAware ADS-B
07:50PM 41.4727 -94.6778 268° West 388 447 38,000  Level FlightAware ADS-B
07:50PM 41.4727 -94.6804 270° West 388 447 38,000  Level FlightAware ADS-B
07:50PM 41.4726 -94.6826 267° West 388 447 38,000  Level FlightAware ADS-B
07:50PM 41.4725 -94.6871 268° West 388 447 38,000  Level FlightAware ADS-B
07:50PM 41.4725 -94.6884 270° West 388 447 38,000  Level FlightAware ADS-B
07:50PM 41.4725 -94.6907 270° West 388 447 38,000  Level FlightAware ADS-B
07:50PM 41.4724 -94.6945 268° West 388 447 38,000  Level FlightAware ADS-B
07:50PM 41.4724 -94.6957 270° West 388 447 38,000  Level FlightAware ADS-B
07:50PM 41.4723 -94.6967 262° West 389 448 38,000  Level FlightAware ADS-B
07:50PM 41.4723 -94.7000 270° West 389 448 38,000  Level FlightAware ADS-B
07:50PM 41.4722 -94.7053 269° West 389 448 38,000  Level FlightAware ADS-B
07:50PM 41.4721 -94.7072 266° West 389 448 38,000  Level FlightAware ADS-B
07:50PM 41.4720 -94.7122 268° West 389 448 38,000  Level FlightAware ADS-B
07:50PM 41.4720 -94.7131 270° West 389 448 38,000  Level FlightAware ADS-B
07:50PM 41.4719 -94.7153 267° West 389 448 38,000  Level FlightAware ADS-B
07:50PM 41.4719 -94.7191 270° West 389 448 38,000  Level FlightAware ADS-B
07:50PM 41.4718 -94.7215 267° West 389 448 38,000  Level FlightAware ADS-B
07:50PM 41.4717 -94.7237 267° West 389 448 38,000  Level FlightAware ADS-B
07:50PM 41.4717 -94.7263 270° West 389 448 38,000  Level FlightAware ADS-B
07:50PM 41.4717 -94.7287 270° West 389 448 38,000  Level FlightAware ADS-B
07:50PM 41.4716 -94.7309 267° West 389 448 38,000  Level FlightAware ADS-B
07:50PM 41.4716 -94.7323 270° West 389 448 38,000  Level FlightAware ADS-B
07:50PM 41.4715 -94.7344 266° West 389 448 38,000  Level FlightAware ADS-B
07:52PM 41.4682 -94.8909 268° West 393 452 38,000  Level FlightAware ADS-B
07:52PM 41.4678 -94.9095 268° West 393 452 38,000  Level FlightAware ADS-B
07:52PM 41.4677 -94.9119 267° West 393 452 38,000  Level FlightAware ADS-B
07:52PM 41.4675 -94.9230 269° West 393 452 38,000  Level FlightAware ADS-B
07:52PM 41.4674 -94.9255 267° West 393 452 38,000  Level FlightAware ADS-B
07:52PM 41.4674 -94.9255 267° West 394 453 38,000  Level FlightAware ADS-B
07:52PM 41.4674 -94.9279 270° West 394 453 38,000  Level FlightAware ADS-B
07:52PM 41.4673 -94.9327 268° West 394 453 38,000  Level FlightAware ADS-B
07:52PM 41.4672 -94.9351 267° West 394 453 38,000  Level FlightAware ADS-B
07:52PM 41.4672 -94.9363 270° West 394 453 38,000  Level FlightAware ADS-B
07:52PM 41.4672 -94.9373 270° West 394 453 38,000  Level FlightAware ADS-B
07:52PM 41.4671 -94.9402 267° West 394 453 38,000  Level FlightAware ADS-B
07:52PM 41.4671 -94.9421 270° West 394 453 38,000  Level FlightAware ADS-B
07:52PM 41.4670 -94.9443 267° West 394 453 38,000  Level FlightAware ADS-B
07:52PM 41.4670 -94.9470 270° West 394 453 38,000  Level FlightAware ADS-B
07:52PM 41.4669 -94.9484 265° West 394 453 38,000  Level FlightAware ADS-B
07:52PM 41.4668 -94.9523 268° West 394 453 38,000  Level FlightAware ADS-B
07:52PM 41.4667 -94.9574 269° West 394 453 38,000  Level FlightAware ADS-B
07:52PM 41.4667 -94.9574 269° West 395 455 38,000  Level FlightAware ADS-B
07:52PM 41.4665 -94.9649 268° West 395 455 38,000  Level FlightAware ADS-B
07:52PM 41.4665 -94.9673 270° West 395 455 38,000  Level FlightAware ADS-B
07:52PM 41.4665 -94.9686 270° West 395 455 38,000  Level FlightAware ADS-B
07:52PM 41.4664 -94.9709 267° West 395 455 38,000  Level FlightAware ADS-B
07:52PM 41.4663 -94.9746 268° West 395 455 38,000  Level FlightAware ADS-B
07:52PM 41.4663 -94.9771 270° West 395 455 38,000  Level FlightAware ADS-B
07:52PM 41.4662 -94.9792 266° West 395 455 38,000  Level FlightAware ADS-B
07:52PM 41.4662 -94.9821 270° West 395 455 38,000  Level FlightAware ADS-B
07:52PM 41.4661 -94.9841 266° West 395 455 38,000  Level FlightAware ADS-B
07:52PM 41.4660 -94.9889 268° West 395 455 38,000  Level FlightAware ADS-B
07:52PM 41.4660 -94.9914 270° West 395 455 38,000  Level FlightAware ADS-B
07:52PM 41.4659 -94.9928 265° West 395 455 38,000  Level FlightAware ADS-B
07:52PM 41.4659 -94.9938 270° West 395 455 38,000  Level FlightAware ADS-B
07:52PM 41.4658 -94.9981 268° West 395 455 38,000  Level FlightAware ADS-B
07:52PM 41.4657 -95.0055 269° West 395 455 38,000  Level FlightAware ADS-B
07:52PM 41.4656 -95.0069 265° West 395 455 38,000  Level FlightAware ADS-B
07:52PM 41.4656 -95.0078 270° West 395 455 38,000  Level FlightAware ADS-B
07:52PM 41.4655 -95.0105 267° West 395 455 38,000  Level FlightAware ADS-B
07:52PM 41.4655 -95.0120 270° West 395 455 38,000  Level FlightAware ADS-B
07:52PM 41.4655 -95.0134 270° West 395 455 38,000  Level FlightAware ADS-B
07:52PM 41.4654 -95.0161 267° West 395 455 38,000  Level FlightAware ADS-B
07:52PM 41.4653 -95.0209 268° West 395 455 38,000  Level FlightAware ADS-B
07:52PM 41.4652 -95.0236 267° West 395 455 38,000  Level FlightAware ADS-B
07:52PM 41.4652 -95.0251 270° West 395 455 38,000  Level FlightAware ADS-B
07:52PM 41.4651 -95.0273 267° West 395 455 38,000  Level FlightAware ADS-B
07:52PM 41.4651 -95.0285 270° West 395 455 38,000  Level FlightAware ADS-B
07:52PM 41.4651 -95.0312 270° West 395 455 38,000  Level FlightAware ADS-B
07:52PM 41.4650 -95.0338 267° West 395 455 38,000  Level FlightAware ADS-B
07:52PM 41.4649 -95.0387 268° West 395 455 38,000  Level FlightAware ADS-B
07:53PM 41.4648 -95.0433 268° West 395 455 38,000  Level FlightAware ADS-B
07:53PM 41.4648 -95.0446 270° West 395 455 38,000  Level FlightAware ADS-B
07:53PM 41.4647 -95.0460 265° West 395 455 38,000  Level FlightAware ADS-B
07:53PM 41.4646 -95.0487 267° West 395 455 38,000  Level FlightAware ADS-B
07:53PM 41.4646 -95.0523 270° West 395 455 38,000  Level FlightAware ADS-B
07:54PM 41.4608 -95.2126 268° West 394 453 38,000  Level FlightAware ADS-B
07:54PM 41.4607 -95.2153 267° West 394 453 38,000  Level FlightAware ADS-B
07:54PM 41.4606 -95.2177 267° West 394 453 38,000  Level FlightAware ADS-B
07:54PM 41.4605 -95.2201 267° West 394 453 38,000  Level FlightAware ADS-B
07:54PM 41.4605 -95.2228 270° West 394 453 38,000  Level FlightAware ADS-B
07:54PM 41.4604 -95.2254 267° West 394 453 38,000  Level FlightAware ADS-B
07:54PM 41.4600 -95.2405 268° West 394 453 38,000  Level FlightAware ADS-B
07:54PM 41.4600 -95.2417 270° West 394 453 38,000  Level FlightAware ADS-B
07:54PM 41.4600 -95.2417 270° West 395 455 38,000  Level FlightAware ADS-B
07:54PM 41.4599 -95.2446 267° West 395 455 38,000  Level FlightAware ADS-B
07:54PM 41.4597 -95.2545 268° West 395 455 38,000  Level FlightAware ADS-B
07:54PM 41.4595 -95.2643 268° West 395 455 38,000  Level FlightAware ADS-B
07:54PM 41.4593 -95.2691 267° West 395 455 38,000  Level FlightAware ADS-B
07:54PM 41.4593 -95.2715 270° West 395 455 38,000  Level FlightAware ADS-B
07:54PM 41.4592 -95.2766 269° West 395 455 38,000  Level FlightAware ADS-B
07:54PM 41.4591 -95.2793 267° West 395 455 38,000  Level FlightAware ADS-B
07:54PM 41.4590 -95.2817 267° West 395 455 38,000  Level FlightAware ADS-B
07:54PM 41.4590 -95.2842 270° West 395 455 38,000  Level FlightAware ADS-B
07:54PM 41.4589 -95.2866 267° West 395 455 38,000  Level FlightAware ADS-B
07:54PM 41.4589 -95.2866 267° West 396 456 38,000  Level FlightAware ADS-B
07:54PM 41.4586 -95.2966 268° West 396 456 38,000  Level FlightAware ADS-B
07:54PM 41.4586 -95.2992 270° West 396 456 38,000  Level FlightAware ADS-B
07:54PM 41.4585 -95.3015 267° West 396 456 38,000  Level FlightAware ADS-B
07:54PM 41.4584 -95.3038 267° West 396 456 38,000  Level FlightAware ADS-B
07:54PM 41.4584 -95.3053 270° West 396 456 38,000  Level FlightAware ADS-B
07:54PM 41.4584 -95.3075 270° West 396 456 38,000  Level FlightAware ADS-B
07:54PM 41.4582 -95.3136 267° West 396 456 38,000  Level FlightAware ADS-B
07:54PM 41.4581 -95.3160 267° West 396 456 38,000  Level FlightAware ADS-B
07:54PM 41.4580 -95.3221 269° West 396 456 38,000  Level FlightAware ADS-B
07:54PM 41.4580 -95.3233 270° West 396 456 38,000  Level FlightAware ADS-B
07:54PM 41.4579 -95.3256 267° West 396 456 38,000  Level FlightAware ADS-B
07:54PM 41.4578 -95.3282 267° West 396 456 38,000  Level FlightAware ADS-B
07:54PM 41.4578 -95.3297 270° West 396 456 38,000  Level FlightAware ADS-B
07:55PM 41.4577 -95.3324 267° West 396 456 38,000  Level FlightAware ADS-B
07:55PM 41.4577 -95.3350 270° West 396 456 38,000  Level FlightAware ADS-B
07:55PM 41.4576 -95.3377 267° West 396 456 38,000  Level FlightAware ADS-B
07:55PM 41.4576 -95.3404 270° West 396 456 38,000  Level FlightAware ADS-B
07:55PM 41.4575 -95.3418 265° West 396 456 38,000  Level FlightAware ADS-B
07:55PM 41.4575 -95.3443 270° West 396 456 38,000  Level FlightAware ADS-B
07:55PM 41.4574 -95.3470 267° West 396 456 38,000  Level FlightAware ADS-B
07:55PM 41.4573 -95.3492 267° West 396 456 38,000  Level FlightAware ADS-B
07:55PM 41.4572 -95.3537 268° West 396 456 38,000  Level FlightAware ADS-B
07:55PM 41.4571 -95.3552 265° West 396 456 38,000  Level FlightAware ADS-B
07:55PM 41.4571 -95.3579 270° West 396 456 38,000  Level FlightAware ADS-B
07:55PM 41.4570 -95.3608 267° West 396 456 38,000  Level FlightAware ADS-B
07:55PM 41.4570 -95.3633 270° West 396 456 38,000  Level FlightAware ADS-B
07:55PM 41.4569 -95.3659 267° West 396 456 38,000  Level FlightAware ADS-B
07:55PM 41.4568 -95.3681 267° West 396 456 38,000  Level FlightAware ADS-B
07:55PM 41.4568 -95.3703 270° West 396 456 38,000  Level FlightAware ADS-B
07:56PM 41.4526 -95.5277 268° West 396 456 38,000  Level FlightAware ADS-B
07:56PM 41.4525 -95.5313 268° West 396 456 38,000  Level FlightAware ADS-B
07:56PM 41.4524 -95.5335 267° West 396 456 38,000  Level FlightAware ADS-B
07:56PM 41.4523 -95.5357 267° West 396 456 38,000  Level FlightAware ADS-B
07:56PM 41.4523 -95.5367 270° West 396 456 38,000  Level FlightAware ADS-B
07:56PM 41.4522 -95.5415 268° West 396 456 38,000  Level FlightAware ADS-B
07:56PM 41.4521 -95.5439 267° West 396 456 38,000  Level FlightAware ADS-B
07:56PM 41.4519 -95.5520 268° West 396 456 38,000  Level FlightAware ADS-B
07:56PM 41.4518 -95.5542 267° West 396 456 38,000  Level FlightAware ADS-B
07:56PM 41.4518 -95.5554 270° West 396 456 38,000  Level FlightAware ADS-B
07:56PM 41.4517 -95.5586 268° West 396 456 38,000  Level FlightAware ADS-B
07:56PM 41.4516 -95.5622 268° West 396 456 38,000  Level FlightAware ADS-B
07:56PM 41.4516 -95.5631 270° West 396 456 38,000  Level FlightAware ADS-B
07:56PM 41.4514 -95.5710 268° West 396 456 38,000  Level FlightAware ADS-B
07:56PM 41.4513 -95.5721 263° West 396 456 38,000  Level FlightAware ADS-B
07:56PM 41.4513 -95.5731 270° West 396 456 38,000  Level FlightAware ADS-B
07:56PM 41.4513 -95.5731 270° West 395 455 38,000  Level FlightAware ADS-B
07:56PM 41.4511 -95.5789 267° West 395 455 38,000  Level FlightAware ADS-B
07:56PM 41.4510 -95.5823 268° West 395 455 38,000  Level FlightAware ADS-B
07:56PM 41.4510 -95.5848 270° West 395 455 38,000  Level FlightAware ADS-B
07:56PM 41.4510 -95.5857 270° West 395 455 38,000  Level FlightAware ADS-B
07:56PM 41.4510 -95.5872 270° West 395 455 38,000  Level FlightAware ADS-B
07:56PM 41.4509 -95.5899 267° West 395 455 38,000  Level FlightAware ADS-B
07:56PM 41.4504 -95.6074 268° West 395 455 38,000  Level FlightAware ADS-B
07:56PM 41.4501 -95.6168 268° West 395 455 38,000  Level FlightAware ADS-B
07:56PM 41.4500 -95.6193 267° West 395 455 38,000  Level FlightAware ADS-B
07:57PM 41.4498 -95.6290 268° West 395 455 38,000  Level FlightAware ADS-B
07:57PM 41.4497 -95.6302 264° West 395 455 38,000  Level FlightAware ADS-B
07:57PM 41.4497 -95.6326 270° West 395 455 38,000  Level FlightAware ADS-B
07:57PM 41.4496 -95.6351 267° West 395 455 38,000  Level FlightAware ADS-B
07:57PM 41.4495 -95.6389 268° West 395 455 38,000  Level FlightAware ADS-B
07:57PM 41.4494 -95.6426 268° West 395 455 38,000  Level FlightAware ADS-B
07:57PM 41.4493 -95.6450 267° West 395 455 38,000  Level FlightAware ADS-B
07:57PM 41.4493 -95.6462 270° West 395 455 38,000  Level FlightAware ADS-B
07:57PM 41.4492 -95.6494 268° West 395 455 38,000  Level FlightAware ADS-B
07:57PM 41.4491 -95.6521 267° West 395 455 38,000  Level FlightAware ADS-B
07:57PM 41.4490 -95.6548 267° West 395 455 38,000  Level FlightAware ADS-B
07:57PM 41.4489 -95.6570 267° West 395 455 38,000  Level FlightAware ADS-B
07:57PM 41.4489 -95.6581 270° West 395 455 38,000  Level FlightAware ADS-B
07:57PM 41.4488 -95.6615 268° West 395 455 38,000  Level FlightAware ADS-B
07:57PM 41.4488 -95.6642 270° West 395 455 38,000  Level FlightAware ADS-B
07:57PM 41.4487 -95.6661 266° West 395 455 38,000  Level FlightAware ADS-B
07:57PM 41.4486 -95.6703 268° West 395 455 38,000  Level FlightAware ADS-B
07:57PM 41.4485 -95.6718 265° West 395 455 38,000  Level FlightAware ADS-B
07:57PM 41.4484 -95.6742 267° West 395 455 38,000  Level FlightAware ADS-B
07:57PM 41.4483 -95.6792 268° West 395 455 38,000  Level FlightAware ADS-B
07:57PM 41.4483 -95.6802 270° West 395 455 38,000  Level FlightAware ADS-B
07:57PM 41.4482 -95.6841 268° West 395 455 38,000  Level FlightAware ADS-B
07:57PM 41.4481 -95.6868 267° West 395 455 38,000  Level FlightAware ADS-B
07:58PM 41.4460 -95.7740 268° West 395 455 38,000  Level FlightAware
07:58PM 41.4450 -95.7900 265° West 395 455 38,000  Level FlightAware
07:58PM 41.4450 -95.8010 270° West 394 453 38,000  Level FlightAware
07:58PM 41.4440 -95.8230 267° West 393 452 38,000  Level FlightAware
07:58PM 41.4434 -95.8460 268° West 392 451 38,000  Level FlightAware ADS-B
07:58PM 41.4433 -95.8487 267° West 392 451 38,000  Level FlightAware ADS-B
07:58PM 41.4432 -95.8508 266° West 392 451 38,000  Level FlightAware ADS-B
07:58PM 41.4431 -95.8523 265° West 392 451 38,000  Level FlightAware ADS-B
07:58PM 41.4431 -95.8549 270° West 392 451 38,000  Level FlightAware ADS-B
07:58PM 41.4430 -95.8573 267° West 392 451 38,000  Level FlightAware ADS-B
07:58PM 41.4429 -95.8621 268° West 392 451 38,000  Level FlightAware ADS-B
07:58PM 41.4428 -95.8645 267° West 392 451 38,000  Level FlightAware ADS-B
07:58PM 41.4428 -95.8657 270° West 392 451 38,000  Level FlightAware ADS-B
07:58PM 41.4427 -95.8684 267° West 392 451 38,000  Level FlightAware ADS-B
07:58PM 41.4426 -95.8718 268° West 392 451 38,000  Level FlightAware ADS-B
07:58PM 41.4425 -95.8739 266° West 392 451 38,000  Level FlightAware ADS-B
07:58PM 41.4424 -95.8766 267° West 392 451 38,000  Level FlightAware ADS-B
07:58PM 41.4422 -95.8843 268° West 392 451 38,000  Level FlightAware ADS-B
07:58PM 41.4421 -95.8876 268° West 392 451 38,000  Level FlightAware ADS-B
07:58PM 41.4421 -95.8891 270° West 392 451 38,000  Level FlightAware ADS-B
07:58PM 41.4420 -95.8915 267° West 392 451 38,000  Level FlightAware ADS-B
07:58PM 41.4418 -95.8959 267° West 392 451 38,000  Level FlightAware ADS-B
07:58PM 41.4418 -95.8968 270° West 392 451 38,000  Level FlightAware ADS-B
07:58PM 41.4418 -95.8980 270° West 392 451 38,000  Level FlightAware ADS-B
07:58PM 41.4415 -95.9057 267° West 392 451 38,000  Level FlightAware ADS-B
07:58PM 41.4414 -95.9081 267° West 392 451 38,000  Level FlightAware ADS-B
07:58PM 41.4413 -95.9118 268° West 392 451 38,000  Level FlightAware ADS-B
07:58PM 41.4412 -95.9151 268° West 392 451 38,000  Level FlightAware ADS-B
07:59PM 41.4412 -95.9175 270° West 392 451 38,000  Level FlightAware ADS-B
07:59PM 41.4411 -95.9199 267° West 392 451 38,000  Level FlightAware ADS-B
07:59PM 41.4410 -95.9231 268° West 392 451 38,000  Level FlightAware ADS-B
07:59PM 41.4408 -95.9291 267° West 392 451 38,000  Level FlightAware ADS-B
07:59PM 41.4405 -95.9387 268° West 392 451 38,000  Level FlightAware ADS-B
07:59PM 41.4402 -95.9476 267° West 392 451 38,000  Level FlightAware ADS-B
07:59PM 41.4402 -95.9488 270° West 392 451 38,000  Level FlightAware ADS-B
07:59PM 41.4398 -95.9630 268° West 392 451 38,000  Level FlightAware ADS-B
07:59PM 41.4397 -95.9642 264° West 392 451 38,000  Level FlightAware ADS-B
07:59PM 41.4397 -95.9667 270° West 391 450 38,000  Level FlightAware ADS-B
07:59PM 41.4397 -95.9676 270° West 391 450 38,000  Level FlightAware ADS-B
07:59PM 41.4396 -95.9698 267° West 391 450 38,000  Level FlightAware ADS-B
07:59PM 41.4395 -95.9734 268° West 391 450 38,000  Level FlightAware ADS-B
07:59PM 41.4394 -95.9753 266° West 391 450 38,000  Level FlightAware ADS-B
07:59PM 41.4393 -95.9780 267° West 391 450 38,000  Level FlightAware ADS-B
07:59PM 41.4393 -95.9806 270° West 391 450 38,000  Level FlightAware ADS-B
07:59PM 41.4392 -95.9830 267° West 391 450 38,000  Level FlightAware ADS-B
07:59PM 41.4391 -95.9852 267° West 391 450 38,000  Level FlightAware ADS-B
07:59PM 41.4391 -95.9864 270° West 391 450 38,000  Level FlightAware ADS-B
07:59PM 41.4390 -95.9902 268° West 391 450 38,000  Level FlightAware ADS-B
07:59PM 41.4389 -95.9926 267° West 391 450 38,000  Level FlightAware ADS-B
07:59PM 41.4389 -95.9938 270° West 391 450 38,000  Level FlightAware ADS-B
07:59PM 41.4387 -95.9974 266° West 391 450 38,000  Level FlightAware ADS-B
07:59PM 41.4387 -95.9998 270° West 391 450 38,000  Level FlightAware ADS-B
08:00PM 41.4360 -96.0720 267° West 391 450 38,000  Level FlightAware
08:00PM 41.4360 -96.0880 270° West 390 449 38,000  Level FlightAware
08:00PM 41.4335 -96.1585 267° West 390 449 38,000  Level FlightAware ADS-B
08:00PM 41.4334 -96.1610 267° West 390 449 38,000  Level FlightAware ADS-B
08:00PM 41.4333 -96.1653 268° West 390 449 38,000  Level FlightAware ADS-B
08:00PM 41.4330 -96.1732 267° West 390 449 38,000  Level FlightAware ADS-B
08:00PM 41.4328 -96.1782 267° West 390 449 38,000  Level FlightAware ADS-B
08:00PM 41.4327 -96.1803 266° West 390 449 38,000  Level FlightAware ADS-B
08:00PM 41.4326 -96.1822 266° West 390 449 38,000  Level FlightAware ADS-B
08:00PM 41.4326 -96.1847 270° West 390 449 38,000  Level FlightAware ADS-B
08:00PM 41.4325 -96.1875 267° West 390 449 38,000  Level FlightAware ADS-B
08:00PM 41.4324 -96.1899 267° West 390 449 38,000  Level FlightAware ADS-B
08:00PM 41.4323 -96.1923 267° West 390 449 38,000  Level FlightAware ADS-B
08:00PM 41.4321 -96.1966 266° West 390 449 38,000  Level FlightAware ADS-B
08:00PM 41.4321 -96.1988 270° West 390 449 38,000  Level FlightAware ADS-B
08:00PM 41.4320 -96.2011 267° West 390 449 38,000  Level FlightAware ADS-B
08:01PM 41.4319 -96.2038 267° West 390 449 38,000  Level FlightAware ADS-B
08:01PM 41.4318 -96.2062 267° West 390 449 38,000  Level FlightAware ADS-B
08:01PM 41.4315 -96.2138 267° West 390 449 38,000  Level FlightAware ADS-B
08:01PM 41.4315 -96.2160 270° West 390 449 38,000  Level FlightAware ADS-B
08:01PM 41.4314 -96.2181 266° West 390 449 38,000  Level FlightAware ADS-B
08:01PM 41.4313 -96.2205 267° West 390 449 38,000  Level FlightAware ADS-B
08:01PM 41.4313 -96.2229 270° West 390 449 38,000  Level FlightAware ADS-B
08:01PM 41.4312 -96.2251 267° West 390 449 38,000  Level FlightAware ADS-B
08:01PM 41.4311 -96.2275 267° West 389 448 38,000  Level FlightAware ADS-B
08:01PM 41.4310 -96.2303 267° West 389 448 38,000  Level FlightAware ADS-B
08:01PM 41.4309 -96.2322 266° West 389 448 38,000  Level FlightAware ADS-B
08:01PM 41.4309 -96.2344 270° West 389 448 38,000  Level FlightAware ADS-B
08:01PM 41.4308 -96.2371 267° West 389 448 38,000  Level FlightAware ADS-B
08:01PM 41.4307 -96.2392 266° West 389 448 38,000  Level FlightAware ADS-B
08:01PM 41.4306 -96.2421 267° West 389 448 38,000  Level FlightAware ADS-B
08:01PM 41.4305 -96.2442 266° West 389 448 38,000  Level FlightAware ADS-B
08:01PM 41.4304 -96.2468 267° West 389 448 38,000  Level FlightAware ADS-B
08:01PM 41.4303 -96.2516 268° West 389 448 38,000  Level FlightAware ADS-B
08:01PM 41.4302 -96.2540 267° West 389 448 38,000  Level FlightAware ADS-B
08:01PM 41.4301 -96.2562 267° West 389 448 38,000  Level FlightAware ADS-B
08:01PM 41.4300 -96.2607 268° West 389 448 38,000  Level FlightAware ADS-B
08:01PM 41.4299 -96.2628 266° West 389 448 38,000  Level FlightAware ADS-B
08:01PM 41.4298 -96.2652 267° West 389 448 38,000  Level FlightAware ADS-B
08:01PM 41.4297 -96.2705 269° West 389 448 38,000  Level FlightAware ADS-B
08:01PM 41.4296 -96.2726 266° West 389 448 38,000  Level FlightAware ADS-B
08:01PM 41.4292 -96.2843 267° West 389 448 38,000  Level FlightAware ADS-B
08:01PM 41.4292 -96.2862 270° West 389 448 38,000  Level FlightAware ADS-B
08:01PM 41.4291 -96.2888 267° West 389 448 38,000  Level FlightAware ADS-B
08:01PM 41.4287 -96.2979 267° West 389 448 38,000  Level FlightAware ADS-B
08:01PM 41.4287 -96.3005 270° West 389 448 38,000  Level FlightAware ADS-B
08:01PM 41.4286 -96.3027 267° West 389 448 38,000  Level FlightAware ADS-B
08:01PM 41.4285 -96.3051 267° West 389 448 38,000  Level FlightAware ADS-B
08:01PM 41.4284 -96.3077 267° West 389 448 38,000  Level FlightAware ADS-B
08:01PM 41.4284 -96.3099 270° West 388 447 38,000  Level FlightAware ADS-B
08:02PM 41.4228 -96.4703 267° West 388 447 38,000  Level FlightAware ADS-B
08:02PM 41.4227 -96.4724 266° West 388 447 38,000  Level FlightAware ADS-B
08:02PM 41.4227 -96.4736 270° West 388 447 38,000  Level FlightAware ADS-B
08:02PM 41.4223 -96.4848 267° West 388 447 38,000  Level FlightAware ADS-B
08:02PM 41.4223 -96.4858 270° West 388 447 38,000  Level FlightAware ADS-B
08:02PM 41.4222 -96.4870 264° West 388 447 38,000  Level FlightAware ADS-B
08:03PM 41.4216 -96.5037 267° West 388 447 38,000  Level FlightAware ADS-B
08:03PM 41.4215 -96.5056 266° West 388 447 38,000  Level FlightAware ADS-B
08:03PM 41.4213 -96.5127 268° West 388 447 38,000  Level FlightAware ADS-B
08:03PM 41.4213 -96.5139 270° West 388 447 38,000  Level FlightAware ADS-B
08:03PM 41.4212 -96.5151 264° West 388 447 38,000  Level FlightAware ADS-B
08:03PM 41.4211 -96.5184 268° West 388 447 38,000  Level FlightAware ADS-B
08:03PM 41.4210 -96.5208 267° West 388 447 38,000  Level FlightAware ADS-B
08:03PM 41.4209 -96.5241 268° West 388 447 38,000  Level FlightAware ADS-B
08:03PM 41.4207 -96.5282 266° West 388 447 38,000  Level FlightAware ADS-B
08:03PM 41.4206 -96.5334 269° West 388 447 38,000  Level FlightAware ADS-B
08:03PM 41.4205 -96.5358 267° West 388 447 38,000  Level FlightAware ADS-B
08:03PM 41.4204 -96.5379 266° West 388 447 38,000  Level FlightAware ADS-B
08:03PM 41.4203 -96.5405 267° West 388 447 38,000  Level FlightAware ADS-B
08:03PM 41.4202 -96.5429 267° West 388 447 38,000  Level FlightAware ADS-B
08:03PM 41.4202 -96.5450 270° West 388 447 38,000  Level FlightAware ADS-B
08:03PM 41.4200 -96.5474 264° West 388 447 38,000  Level FlightAware ADS-B
08:03PM 41.4200 -96.5498 270° West 388 447 38,000  Level FlightAware ADS-B
08:03PM 41.4199 -96.5519 266° West 388 447 38,000  Level FlightAware ADS-B
08:03PM 41.4198 -96.5543 267° West 388 447 38,000  Level FlightAware ADS-B
08:03PM 41.4197 -96.5567 267° West 388 447 38,000  Level FlightAware ADS-B
08:03PM 41.4196 -96.5588 266° West 388 447 38,000  Level FlightAware ADS-B
08:03PM 41.4193 -96.5688 268° West 388 447 38,000  Level FlightAware ADS-B
08:03PM 41.4192 -96.5712 267° West 388 447 38,000  Level FlightAware ADS-B
08:03PM 41.4191 -96.5736 267° West 388 447 38,000  Level FlightAware ADS-B
08:03PM 41.4190 -96.5765 267° West 388 447 38,000  Level FlightAware ADS-B
08:03PM 41.4189 -96.5789 267° West 388 447 38,000  Level FlightAware ADS-B
08:03PM 41.4188 -96.5813 267° West 388 447 38,000  Level FlightAware ADS-B
08:03PM 41.4188 -96.5822 270° West 388 447 38,000  Level FlightAware ADS-B
08:03PM 41.4187 -96.5848 267° West 388 447 38,000  Level FlightAware ADS-B
08:03PM 41.4186 -96.5862 265° West 388 447 38,000  Level FlightAware ADS-B
08:03PM 41.4186 -96.5886 270° West 388 447 38,000  Level FlightAware ADS-B
08:03PM 41.4184 -96.5934 267° West 388 447 38,000  Level FlightAware ADS-B
08:03PM 41.4177 -96.6124 267° West 388 447 38,000  Level FlightAware ADS-B
08:03PM 41.4176 -96.6150 267° West 388 447 38,000  Level FlightAware ADS-B
08:03PM 41.4175 -96.6174 267° West 388 447 38,000  Level FlightAware ADS-B
08:03PM 41.4174 -96.6196 267° West 388 447 38,000  Level FlightAware ADS-B
08:03PM 41.4174 -96.6217 270° West 388 447 38,000  Level FlightAware ADS-B
08:05PM 41.4113 -96.7791 267° West 390 449 38,000  Level FlightAware ADS-B
08:05PM 41.4112 -96.7812 266° West 390 449 38,000  Level FlightAware ADS-B
08:05PM 41.4112 -96.7824 270° West 390 449 38,000  Level FlightAware ADS-B
08:05PM 41.4111 -96.7838 265° West 390 449 38,000  Level FlightAware ADS-B
08:05PM 41.4109 -96.7886 267° West 390 449 38,000  Level FlightAware ADS-B
08:05PM 41.4109 -96.7912 270° West 390 449 38,000  Level FlightAware ADS-B
08:05PM 41.4104 -96.8030 267° West 390 449 38,000  Level FlightAware ADS-B
08:05PM 41.4104 -96.8053 270° West 390 449 38,000  Level FlightAware ADS-B
08:05PM 41.4103 -96.8077 267° West 390 449 38,000  Level FlightAware ADS-B
08:05PM 41.4102 -96.8101 267° West 390 449 38,000  Level FlightAware ADS-B
08:05PM 41.4101 -96.8125 267° West 390 449 38,000  Level FlightAware ADS-B
08:05PM 41.4100 -96.8147 267° West 390 449 38,000  Level FlightAware ADS-B
08:05PM 41.4099 -96.8173 267° West 390 449 38,000  Level FlightAware ADS-B
08:05PM 41.4099 -96.8195 270° West 390 449 38,000  Level FlightAware ADS-B
08:05PM 41.4098 -96.8209 265° West 390 449 38,000  Level FlightAware ADS-B
08:05PM 41.4097 -96.8243 268° West 390 449 38,000  Level FlightAware ADS-B
08:05PM 41.4096 -96.8264 266° West 390 449 38,000  Level FlightAware ADS-B
08:05PM 41.4095 -96.8286 267° West 390 449 38,000  Level FlightAware ADS-B
08:05PM 41.4094 -96.8307 266° West 390 449 38,000  Level FlightAware ADS-B
08:05PM 41.4093 -96.8331 267° West 390 449 38,000  Level FlightAware ADS-B
08:05PM 41.4093 -96.8355 270° West 390 449 38,000  Level FlightAware ADS-B
08:05PM 41.4092 -96.8379 267° West 390 449 38,000  Level FlightAware ADS-B
08:05PM 41.4091 -96.8401 267° West 390 449 38,000  Level FlightAware ADS-B
08:05PM 41.4090 -96.8422 266° West 390 449 38,000  Level FlightAware ADS-B
08:05PM 41.4090 -96.8446 270° West 390 449 38,000  Level FlightAware ADS-B
08:05PM 41.4089 -96.8472 267° West 390 449 38,000  Level FlightAware ADS-B
08:05PM 41.4087 -96.8498 264° West 390 449 38,000  Level FlightAware ADS-B
08:05PM 41.4086 -96.8525 267° West 390 449 38,000  Level FlightAware ADS-B
08:05PM 41.4085 -96.8568 268° West 390 449 38,000  Level FlightAware ADS-B
08:05PM 41.4083 -96.8618 267° West 390 449 38,000  Level FlightAware ADS-B
08:05PM 41.4082 -96.8642 267° West 390 449 38,000  Level FlightAware ADS-B
08:05PM 41.4081 -96.8668 267° West 390 449 38,000  Level FlightAware ADS-B
08:05PM 41.4080 -96.8695 267° West 390 449 38,000  Level FlightAware ADS-B
08:05PM 41.4079 -96.8721 267° West 390 449 38,000  Level FlightAware ADS-B
08:05PM 41.4078 -96.8748 267° West 391 450 38,000  Level FlightAware ADS-B
08:05PM 41.4077 -96.8774 267° West 391 450 38,000  Level FlightAware ADS-B
08:05PM 41.4077 -96.8793 270° West 391 450 38,000  Level FlightAware ADS-B
08:05PM 41.4076 -96.8817 267° West 391 450 38,000  Level FlightAware ADS-B
08:05PM 41.4075 -96.8844 267° West 391 450 38,000  Level FlightAware ADS-B
08:05PM 41.4073 -96.8870 264° West 391 450 38,000  Level FlightAware ADS-B
08:05PM 41.4073 -96.8894 270° West 391 450 38,000  Level FlightAware ADS-B
08:05PM 41.4071 -96.8939 267° West 391 450 38,000  Level FlightAware ADS-B
08:05PM 41.4070 -96.8966 267° West 391 450 38,000  Level FlightAware ADS-B
08:05PM 41.4070 -96.8966 267° West 392 451 38,000  Level FlightAware ADS-B
08:05PM 41.4068 -96.9016 267° West 392 451 38,000  Level FlightAware ADS-B
08:05PM 41.4067 -96.9040 267° West 392 451 38,000  Level FlightAware ADS-B
08:05PM 41.4066 -96.9067 267° West 392 451 38,000  Level FlightAware ADS-B
08:05PM 41.4065 -96.9088 266° West 392 451 38,000  Level FlightAware ADS-B
08:05PM 41.4064 -96.9112 267° West 392 451 38,000  Level FlightAware ADS-B
08:05PM 41.4063 -96.9138 267° West 392 451 38,000  Level FlightAware ADS-B
08:06PM 41.4060 -96.9213 267° West 392 451 38,000  Level FlightAware ADS-B
08:06PM 41.4055 -96.9331 267° West 392 451 38,000  Level FlightAware ADS-B
08:07PM 41.3990 -97.0922 267° West 393 452 38,000  Level FlightAware ADS-B
08:07PM 41.3990 -97.0937 270° West 393 452 38,000  Level FlightAware ADS-B
08:07PM 41.3989 -97.0961 267° West 393 452 38,000  Level FlightAware ADS-B
08:07PM 41.3988 -97.0976 265° West 393 452 38,000  Level FlightAware ADS-B
08:07PM 41.3987 -97.0997 266° West 393 452 38,000  Level FlightAware ADS-B
08:07PM 41.3986 -97.1026 267° West 393 452 38,000  Level FlightAware ADS-B
08:07PM 41.3985 -97.1048 267° West 393 452 38,000  Level FlightAware ADS-B
08:07PM 41.3984 -97.1075 267° West 393 452 38,000  Level FlightAware ADS-B
08:07PM 41.3983 -97.1096 266° West 393 452 38,000  Level FlightAware ADS-B
08:07PM 41.3979 -97.1197 267° West 393 452 38,000  Level FlightAware ADS-B
08:07PM 41.3949 -97.1936 267° West 393 452 38,000  Level FlightAware ADS-B
08:07PM 41.3944 -97.2042 266° West 393 452 38,000  Level FlightAware ADS-B
08:07PM 41.3943 -97.2066 267° West 394 453 38,000  Level FlightAware ADS-B
08:08PM 41.3937 -97.2189 266° West 394 453 38,000  Level FlightAware ADS-B
08:08PM 41.3932 -97.2322 267° West 394 453 38,000  Level FlightAware ADS-B
08:08PM 41.3929 -97.2385 266° West 394 453 38,000  Level FlightAware ADS-B
08:08PM 41.3929 -97.2394 270° West 394 453 38,000  Level FlightAware ADS-B
08:08PM 41.3928 -97.2406 264° West 394 453 38,000  Level FlightAware ADS-B
08:09PM 41.3855 -97.4098 267° West 395 455 38,000  Level FlightAware ADS-B
08:09PM 41.3855 -97.4117 270° West 395 455 38,000  Level FlightAware ADS-B
08:09PM 41.3844 -97.4340 266° West 395 455 38,000  Level FlightAware ADS-B
08:09PM 41.3844 -97.4366 270° West 395 455 38,000  Level FlightAware ADS-B
08:09PM 41.3839 -97.4463 266° West 395 455 38,000  Level FlightAware ADS-B
08:09PM 41.3839 -97.4475 270° West 395 455 38,000  Level FlightAware ADS-B
08:09PM 41.3838 -97.4500 267° West 395 455 38,000  Level FlightAware ADS-B
08:09PM 41.3837 -97.4509 262° West 395 455 38,000  Level FlightAware ADS-B
08:09PM 41.3834 -97.4572 266° West 395 455 38,000  Level FlightAware ADS-B
08:09PM 41.3833 -97.4591 266° West 395 455 38,000  Level FlightAware ADS-B
08:09PM 41.3832 -97.4628 268° West 395 455 38,000  Level FlightAware ADS-B
08:09PM 41.3830 -97.4654 264° West 395 455 38,000  Level FlightAware ADS-B
08:09PM 41.3830 -97.4669 270° West 395 455 38,000  Level FlightAware ADS-B
08:09PM 41.3829 -97.4688 266° West 395 455 38,000  Level FlightAware ADS-B
08:09PM 41.3827 -97.4729 266° West 395 455 38,000  Level FlightAware ADS-B
08:09PM 41.3825 -97.4778 267° West 395 455 38,000  Level FlightAware ADS-B
08:09PM 41.3823 -97.4821 266° West 395 455 38,000  Level FlightAware ADS-B
08:09PM 41.3822 -97.4836 265° West 395 455 38,000  Level FlightAware ADS-B
08:09PM 41.3822 -97.4850 270° West 395 455 38,000  Level FlightAware ADS-B
08:09PM 41.3819 -97.4899 265° West 395 455 38,000  Level FlightAware ADS-B
08:09PM 41.3818 -97.4926 267° West 395 455 38,000  Level FlightAware ADS-B
08:09PM 41.3818 -97.4935 270° West 395 455 38,000  Level FlightAware ADS-B
08:09PM 41.3817 -97.4949 265° West 395 455 38,000  Level FlightAware ADS-B
08:10PM 41.3816 -97.4984 268° West 395 455 38,000  Level FlightAware ADS-B
08:10PM 41.3814 -97.5007 263° West 395 455 38,000  Level FlightAware ADS-B
08:10PM 41.3814 -97.5029 270° West 395 455 38,000  Level FlightAware ADS-B
08:10PM 41.3812 -97.5068 266° West 395 455 38,000  Level FlightAware ADS-B
08:10PM 41.3811 -97.5097 267° West 395 455 38,000  Level FlightAware ADS-B
08:10PM 41.3810 -97.5107 262° West 395 455 38,000  Level FlightAware ADS-B
08:10PM 41.3809 -97.5131 267° West 395 455 38,000  Level FlightAware ADS-B
08:10PM 41.3808 -97.5157 267° West 395 455 38,000  Level FlightAware ADS-B
08:10PM 41.3807 -97.5179 267° West 395 455 38,000  Level FlightAware ADS-B
08:10PM 41.3806 -97.5201 267° West 395 455 38,000  Level FlightAware ADS-B
08:10PM 41.3805 -97.5225 267° West 395 455 38,000  Level FlightAware ADS-B
08:10PM 41.3804 -97.5257 268° West 395 455 38,000  Level FlightAware ADS-B
08:10PM 41.3803 -97.5271 265° West 395 455 38,000  Level FlightAware ADS-B
08:10PM 41.3802 -97.5286 265° West 395 455 38,000  Level FlightAware ADS-B
08:10PM 41.3801 -97.5312 267° West 395 455 38,000  Level FlightAware ADS-B
08:10PM 41.3800 -97.5339 267° West 395 455 38,000  Level FlightAware ADS-B
08:10PM 41.3800 -97.5351 270° West 395 455 38,000  Level FlightAware ADS-B
08:10PM 41.3793 -97.5514 267° West 395 455 38,000  Level FlightAware ADS-B
08:11PM 41.3714 -97.7248 267° West 393 452 38,000  Level FlightAware ADS-B
08:11PM 41.3713 -97.7272 267° West 393 452 38,000  Level FlightAware ADS-B
08:11PM 41.3712 -97.7298 267° West 393 452 38,000  Level FlightAware ADS-B
08:11PM 41.3711 -97.7322 267° West 393 452 38,000  Level FlightAware ADS-B
08:11PM 41.3710 -97.7342 266° West 393 452 38,000  Level FlightAware ADS-B
08:11PM 41.3710 -97.7351 270° West 393 452 38,000  Level FlightAware ADS-B
08:11PM 41.3708 -97.7382 265° West 393 452 38,000  Level FlightAware ADS-B
08:11PM 41.3707 -97.7406 267° West 393 452 38,000  Level FlightAware ADS-B
08:11PM 41.3706 -97.7435 267° West 393 452 38,000  Level FlightAware ADS-B
08:11PM 41.3702 -97.7512 266° West 393 452 38,000  Level FlightAware ADS-B
08:11PM 41.3701 -97.7537 267° West 393 452 38,000  Level FlightAware ADS-B
08:12PM 41.3670 -97.8175 266° West 393 452 38,000  Level FlightAware ADS-B
08:12PM 41.3669 -97.8197 267° West 393 452 38,000  Level FlightAware ADS-B
08:12PM 41.3668 -97.8219 267° West 393 452 38,000  Level FlightAware ADS-B
08:12PM 41.3667 -97.8238 266° West 393 452 38,000  Level FlightAware ADS-B
08:12PM 41.3666 -97.8262 267° West 392 451 38,000  Level FlightAware ADS-B
08:12PM 41.3665 -97.8284 267° West 392 451 38,000  Level FlightAware ADS-B
08:12PM 41.3661 -97.8362 266° West 392 451 38,000  Level FlightAware ADS-B
08:12PM 41.3658 -97.8430 267° West 392 451 38,000  Level FlightAware ADS-B
08:12PM 41.3657 -97.8456 267° West 392 451 38,000  Level FlightAware ADS-B
08:12PM 41.3653 -97.8530 266° West 392 451 38,000  Level FlightAware ADS-B
08:12PM 41.3652 -97.8557 267° West 392 451 38,000  Level FlightAware ADS-B
08:12PM 41.3651 -97.8576 266° West 392 451 38,000  Level FlightAware ADS-B
08:12PM 41.3650 -97.8605 267° West 392 451 38,000  Level FlightAware ADS-B
08:12PM 41.3648 -97.8650 267° West 392 451 38,000  Level FlightAware ADS-B
08:12PM 41.3645 -97.8701 266° West 392 451 38,000  Level FlightAware ADS-B
08:12PM 41.3644 -97.8725 267° West 392 451 38,000  Level FlightAware ADS-B
08:12PM 41.3644 -97.8735 270° West 392 451 38,000  Level FlightAware ADS-B
08:12PM 41.3642 -97.8773 266° West 392 451 38,000  Level FlightAware ADS-B
08:12PM 41.3642 -97.8783 270° West 392 451 38,000  Level FlightAware ADS-B
08:12PM 41.3641 -97.8794 263° West 392 451 38,000  Level FlightAware ADS-B
08:13PM 41.3564 -98.0361 266° West 390 449 38,000  Level FlightAware ADS-B
08:13PM 41.3561 -98.0404 265° West 390 449 38,000  Level FlightAware ADS-B
08:13PM 41.3560 -98.0428 267° West 390 449 38,000  Level FlightAware ADS-B
08:13PM 41.3557 -98.0475 265° West 390 449 38,000  Level FlightAware ADS-B
08:13PM 41.3556 -98.0499 267° West 390 449 38,000  Level FlightAware ADS-B
08:13PM 41.3554 -98.0552 267° West 390 449 38,000  Level FlightAware ADS-B
08:13PM 41.3552 -98.0576 264° West 390 449 38,000  Level FlightAware ADS-B
08:13PM 41.3551 -98.0599 267° West 389 448 38,000  Level FlightAware ADS-B
08:13PM 41.3550 -98.0623 267° West 389 448 38,000  Level FlightAware ADS-B
08:13PM 41.3547 -98.0666 265° West 389 448 38,000  Level FlightAware ADS-B
08:13PM 41.3546 -98.0685 266° West 389 448 38,000  Level FlightAware ADS-B
08:13PM 41.3544 -98.0733 267° West 389 448 38,000  Level FlightAware ADS-B
08:14PM 41.3542 -98.0780 267° West 389 448 38,000  Level FlightAware ADS-B
08:14PM 41.3538 -98.0851 266° West 389 448 38,000  Level FlightAware ADS-B
08:14PM 41.3536 -98.0897 267° West 389 448 38,000  Level FlightAware ADS-B
08:14PM 41.3535 -98.0920 267° West 389 448 38,000  Level FlightAware ADS-B
08:14PM 41.3533 -98.0944 264° West 389 448 38,000  Level FlightAware ADS-B
08:14PM 41.3532 -98.0965 266° West 389 448 38,000  Level FlightAware ADS-B
08:14PM 41.3531 -98.0989 267° West 389 448 38,000  Level FlightAware ADS-B
08:14PM 41.3528 -98.1040 266° West 389 448 38,000  Level FlightAware ADS-B
08:14PM 41.3527 -98.1063 267° West 389 448 38,000  Level FlightAware ADS-B
08:14PM 41.3525 -98.1108 267° West 389 448 38,000  Level FlightAware ADS-B
08:14PM 41.3521 -98.1185 266° West 389 448 38,000  Level FlightAware ADS-B
08:14PM 41.3520 -98.1211 267° West 389 448 38,000  Level FlightAware ADS-B
08:14PM 41.3519 -98.1232 266° West 389 448 38,000  Level FlightAware ADS-B
08:14PM 41.3518 -98.1254 267° West 389 448 38,000  Level FlightAware ADS-B
08:14PM 41.3518 -98.1254 267° West 388 447 38,000  Level FlightAware ADS-B
08:14PM 41.3518 -98.1254 267° West 389 448 38,000  Level FlightAware ADS-B
08:14PM 41.3489 -98.1829 266° West 389 448 38,000  Level FlightAware ADS-B
08:15PM 41.3408 -98.3460 266° West 390 449 38,000  Level FlightAware ADS-B
08:15PM 41.3402 -98.3577 266° West 390 449 38,000  Level FlightAware ADS-B
08:16PM 41.3400 -98.3605 265° West 390 449 38,000  Level FlightAware ADS-B
08:16PM 41.3399 -98.3632 267° West 390 449 38,000  Level FlightAware ADS-B
08:16PM 41.3397 -98.3658 264° West 390 449 38,000  Level FlightAware ADS-B
08:16PM 41.3396 -98.3682 267° West 390 449 38,000  Level FlightAware ADS-B
08:16PM 41.3392 -98.3753 266° West 390 449 38,000  Level FlightAware ADS-B
08:16PM 41.3390 -98.3801 267° West 390 449 38,000  Level FlightAware ADS-B
08:16PM 41.3389 -98.3825 267° West 390 449 38,000  Level FlightAware ADS-B
08:16PM 41.3386 -98.3871 265° West 390 449 38,000  Level FlightAware ADS-B
08:16PM 41.3385 -98.3897 267° West 390 449 38,000  Level FlightAware ADS-B
08:16PM 41.3383 -98.3923 264° West 390 449 38,000  Level FlightAware ADS-B
08:16PM 41.3383 -98.3942 270° West 390 449 38,000  Level FlightAware ADS-B
08:16PM 41.3380 -98.3992 265° West 390 449 38,000  Level FlightAware ADS-B
08:16PM 41.3379 -98.4014 267° West 390 449 38,000  Level FlightAware ADS-B
08:16PM 41.3378 -98.4037 267° West 390 449 38,000  Level FlightAware ADS-B
08:16PM 41.3376 -98.4062 264° West 390 449 38,000  Level FlightAware ADS-B
08:16PM 41.3374 -98.4109 267° West 390 449 38,000  Level FlightAware ADS-B
08:16PM 41.3374 -98.4109 267° West 391 450 38,000  Level FlightAware ADS-B
08:16PM 41.3371 -98.4160 266° West 391 450 38,000  Level FlightAware ADS-B
08:16PM 41.3370 -98.4186 267° West 391 450 38,000  Level FlightAware ADS-B
08:16PM 41.3369 -98.4210 267° West 391 450 38,000  Level FlightAware ADS-B
08:16PM 41.3367 -98.4233 263° West 391 450 38,000  Level FlightAware ADS-B
08:16PM 41.3366 -98.4255 267° West 391 450 38,000  Level FlightAware ADS-B
08:16PM 41.3362 -98.4327 266° West 391 450 38,000  Level FlightAware ADS-B
08:16PM 41.3352 -98.4509 266° West 391 450 38,000  Level FlightAware ADS-B
08:16PM 41.3350 -98.4559 267° West 391 450 38,000  Level FlightAware ADS-B
08:16PM 41.3347 -98.4604 265° West 391 450 38,000  Level FlightAware ADS-B
08:16PM 41.3346 -98.4628 267° West 391 450 38,000  Level FlightAware ADS-B
08:16PM 41.3345 -98.4652 267° West 391 450 38,000  Level FlightAware ADS-B
08:16PM 41.3343 -98.4676 264° West 391 450 38,000  Level FlightAware ADS-B
08:16PM 41.3340 -98.4722 265° West 391 450 38,000  Level FlightAware ADS-B
08:16PM 41.3336 -98.4791 266° West 391 450 38,000  Level FlightAware ADS-B
08:16PM 41.3335 -98.4815 267° West 391 450 38,000  Level FlightAware ADS-B
08:16PM 41.3329 -98.4918 266° West 391 450 38,000  Level FlightAware ADS-B
08:18PM 41.3180 -98.7695 266° West 399 459 38,000  Level FlightAware ADS-B
08:18PM 41.3177 -98.7744 265° West 399 459 38,000  Level FlightAware ADS-B
08:18PM 41.3176 -98.7769 267° West 399 459 38,000  Level FlightAware ADS-B
08:18PM 41.3173 -98.7818 265° West 399 459 38,000  Level FlightAware ADS-B
08:18PM 41.3169 -98.7891 266° West 399 459 38,000  Level FlightAware ADS-B
08:18PM 41.3167 -98.7917 264° West 399 459 38,000  Level FlightAware ADS-B
08:18PM 41.3166 -98.7939 267° West 399 459 38,000  Level FlightAware ADS-B
08:19PM 41.3165 -98.7961 267° West 399 459 38,000  Level FlightAware ADS-B
08:19PM 41.3163 -98.7986 264° West 399 459 38,000  Level FlightAware ADS-B
08:19PM 41.3162 -98.8010 267° West 399 459 38,000  Level FlightAware ADS-B
08:19PM 41.3161 -98.8022 264° West 399 459 38,000  Level FlightAware ADS-B
08:19PM 41.3156 -98.8125 266° West 399 459 38,000  Level FlightAware ADS-B
08:19PM 41.3154 -98.8145 262° West 399 459 38,000  Level FlightAware ADS-B
08:19PM 41.3153 -98.8167 267° West 399 459 38,000  Level FlightAware ADS-B
08:19PM 41.3152 -98.8191 267° West 399 459 38,000  Level FlightAware ADS-B
08:22PM 41.2873 -99.2981 266° West 400 460 38,000  Level FlightAware ADS-B
08:22PM 41.2870 -99.3035 266° West 400 460 38,000  Level FlightAware ADS-B
08:22PM 41.2867 -99.3081 265° West 400 460 38,000  Level FlightAware ADS-B
08:22PM 41.2863 -99.3154 266° West 400 460 38,000  Level FlightAware ADS-B
08:22PM 41.2861 -99.3182 265° West 400 460 38,000  Level FlightAware ADS-B
08:22PM 41.2858 -99.3231 265° West 400 460 38,000  Level FlightAware ADS-B
08:22PM 41.2855 -99.3282 266° West 400 460 38,000  Level FlightAware ADS-B
08:22PM 41.2854 -99.3309 267° West 400 460 38,000  Level FlightAware ADS-B
08:22PM 41.2852 -99.3331 263° West 400 460 38,000  Level FlightAware ADS-B
08:22PM 41.2848 -99.3404 266° West 400 460 38,000  Level FlightAware ADS-B
08:22PM 41.2846 -99.3429 264° West 400 460 38,000  Level FlightAware ADS-B
08:22PM 41.2845 -99.3448 266° West 400 460 38,000  Level FlightAware ADS-B
08:22PM 41.2843 -99.3475 264° West 400 460 38,000  Level FlightAware ADS-B
08:22PM 41.2842 -99.3499 267° West 400 460 38,000  Level FlightAware ADS-B
08:22PM 41.2837 -99.3575 265° West 400 460 38,000  Level FlightAware ADS-B
08:22PM 41.2836 -99.3594 266° West 400 460 38,000  Level FlightAware ADS-B
08:22PM 41.2835 -99.3616 267° West 400 460 38,000  Level FlightAware ADS-B
08:22PM 41.2831 -99.3688 266° West 400 460 38,000  Level FlightAware ADS-B
08:22PM 41.2826 -99.3761 265° West 400 460 38,000  Level FlightAware ADS-B
08:22PM 41.2825 -99.3785 267° West 400 460 38,000  Level FlightAware ADS-B
08:22PM 41.2823 -99.3812 264° West 400 460 38,000  Level FlightAware ADS-B
08:23PM 41.2818 -99.3893 265° West 400 460 38,000  Level FlightAware ADS-B
08:23PM 41.2816 -99.3917 264° West 400 460 38,000  Level FlightAware ADS-B
08:23PM 41.2816 -99.3917 264° West 399 459 38,000  Level FlightAware ADS-B
08:23PM 41.2815 -99.3946 267° West 399 459 38,000  Level FlightAware ADS-B
08:23PM 41.2794 -99.4264 265° West 399 459 38,000  Level FlightAware ADS-B
08:23PM 41.2747 -99.5092 265° West 400 460 38,000  Level Denver Center
08:24PM 41.2667 -99.6489 266° West 397 457 38,000  Level Denver Center
08:25PM 41.2564 -99.8125 265° West 398 458 38,000  Level Denver Center
08:27PM 41.2464 -99.9531 265° West 399 459 38,000  Level Denver Center
08:28PM 41.2356 -100.1158 265° West 398 458 38,000  Level Denver Center
08:29PM 41.2267 -100.2569 265° West 401 461 38,000  Level Denver Center
08:30PM 41.2158 -100.4217 265° West 403 464 38,000  Level Denver Center
08:31PM 41.2058 -100.5617 265° West 402 463 38,000  Level Denver Center
08:32PM 41.1942 -100.7239 265° West 401 461 38,000  Level Denver Center
08:33PM 41.1839 -100.8636 264° West 401 461 38,000  Level Denver Center
08:38PM 41.1180 -101.6880 264° West 400 460 38,000  Level FlightAware
08:38PM 41.1160 -101.7100 263° West 401 461 38,000  Level FlightAware
08:39PM 41.1110 -101.7640 263° West 401 461 38,000  Level FlightAware
08:39PM 41.1090 -101.8010 266° West 402 463 38,000  Level FlightAware
08:39PM 41.1080 -101.8100 262° West 402 463 38,000  Level FlightAware
08:39PM 41.1070 -101.8280 266° West 403 464 38,000  Level FlightAware
08:39PM 41.1050 -101.8500 263° West 403 464 38,000  Level FlightAware
08:39PM 41.1040 -101.8600 262° West 403 464 38,000  Level FlightAware
08:40PM 41.1020 -101.8800 262° West 404 465 38,000  Level FlightAware
08:40PM 41.1010 -101.8990 266° West 404 465 38,000  Level FlightAware
08:40PM 41.0990 -101.9160 261° West 404 465 38,000  Level FlightAware
08:40PM 41.0980 -101.9370 266° West 404 465 38,000  Level FlightAware
08:40PM 41.0970 -101.9470 262° West 404 465 38,000  Level FlightAware
08:40PM 41.0950 -101.9660 262° West 404 465 38,000  Level FlightAware
08:40PM 41.0930 -101.9870 263° West 404 465 38,000  Level FlightAware
08:40PM 41.0920 -102.0070 266° West 404 465 38,000  Level FlightAware
08:41PM 41.0910 -102.0170 262° West 405 466 38,000  Level FlightAware
08:41PM 41.0890 -102.0360 262° West 405 466 38,000  Level FlightAware
08:41PM 41.0880 -102.0530 266° West 405 466 38,000  Level FlightAware
08:41PM 41.0860 -102.0750 263° West 406 467 38,000  Level FlightAware
08:41PM 41.0850 -102.0850 262° West 406 467 38,000  Level FlightAware
08:41PM 41.0830 -102.1070 263° West 407 468 38,000  Level FlightAware
08:41PM 41.0820 -102.1220 265° West 407 468 38,000  Level FlightAware
08:41PM 41.0810 -102.1290 259° West 407 468 38,000  Level FlightAware
08:41PM 41.0790 -102.1540 264° West 408 470 38,000  Level FlightAware
08:42PM 41.0770 -102.1740 262° West 408 470 38,000  Level FlightAware
08:42PM 41.0760 -102.1940 266° West 409 471 38,000  Level FlightAware
08:42PM 41.0750 -102.2040 262° West 409 471 38,000  Level FlightAware
08:42PM 41.0730 -102.2280 264° West 409 471 38,000  Level FlightAware
08:42PM 41.0720 -102.2380 262° West 409 471 38,000  Level FlightAware
08:42PM 41.0690 -102.2680 262° West 409 471 38,000  Level FlightAware
08:43PM 41.0660 -102.3100 265° West 409 471 38,000  Level FlightAware
08:43PM 41.0640 -102.3280 262° West 409 471 38,000  Level FlightAware
08:43PM 41.0630 -102.3460 266° West 409 471 38,000  Level FlightAware
08:43PM 41.0610 -102.3660 262° West 409 471 38,000  Level FlightAware
08:43PM 41.0590 -102.3880 263° West 408 470 38,000  Level FlightAware
08:43PM 41.0580 -102.3980 262° West 408 470 38,000  Level FlightAware
08:43PM 41.0570 -102.4140 265° West 408 470 38,000  Level FlightAware
08:43PM 41.0550 -102.4350 263° West 407 468 38,000  Level FlightAware
08:43PM 41.0530 -102.4560 263° West 407 468 38,000  Level FlightAware
08:44PM 41.0510 -102.4750 262° West 407 468 38,000  Level FlightAware
08:44PM 41.0510 -102.4830 270° West 408 470 38,000  Level FlightAware
08:44PM 41.0480 -102.5080 261° West 408 470 38,000  Level FlightAware
08:44PM 41.0470 -102.5220 265° West 408 470 38,000  Level FlightAware
08:44PM 41.0450 -102.5480 264° West 408 470 38,000  Level FlightAware
08:44PM 41.0440 -102.5560 261° West 408 470 38,000  Level FlightAware
08:44PM 41.0420 -102.5790 263° West 408 470 38,000  Level FlightAware
08:44PM 41.0410 -102.5920 264° West 408 470 38,000  Level FlightAware
08:45PM 41.0390 -102.6160 264° West 408 470 38,000  Level FlightAware
08:45PM 41.0380 -102.6270 263° West 408 470 38,000  Level FlightAware
08:45PM 41.0360 -102.6470 262° West 408 470 38,000  Level FlightAware
08:45PM 41.0340 -102.6670 262° West 408 470 38,000  Level FlightAware
08:45PM 41.0320 -102.6880 263° West 408 470 38,000  Level FlightAware
08:45PM 41.0320 -102.6940 270° West 408 470 38,000  Level FlightAware
08:45PM 41.0300 -102.7160 263° West 408 470 38,000  Level FlightAware
08:45PM 41.0280 -102.7380 263° West 408 470 38,000  Level FlightAware
08:45PM 41.0260 -102.7520 259° West 408 470 38,000  Level FlightAware
08:46PM 41.0260 -102.7620 270° West 408 470 38,000  Level FlightAware
08:46PM 41.0230 -102.7870 261° West 408 470 38,000  Level FlightAware
08:46PM 41.0220 -102.8060 266° West 408 470 38,000  Level FlightAware
08:46PM 41.0200 -102.8250 262° West 408 470 38,000  Level FlightAware
08:46PM 41.0190 -102.8350 262° West 408 470 38,000  Level FlightAware
08:46PM 41.0170 -102.8520 261° West 408 470 38,000  Level FlightAware
08:46PM 41.0150 -102.8750 263° West 407 468 38,000  Level FlightAware
08:46PM 41.0140 -102.8850 262° West 407 468 38,000  Level FlightAware
08:47PM 41.0130 -102.9010 265° West 407 468 38,000  Level FlightAware
08:47PM 41.0110 -102.9230 263° West 407 468 38,000  Level FlightAware
08:47PM 41.0090 -102.9410 262° West 406 467 38,000  Level FlightAware
08:47PM 41.0090 -102.9460 270° West 406 467 38,000  Level FlightAware
08:47PM 41.0060 -102.9720 261° West 406 467 38,000  Level FlightAware
08:47PM 41.0040 -102.9950 263° West 406 467 38,000  Level FlightAware
08:47PM 41.0030 -103.0100 265° West 405 466 38,000  Level FlightAware
08:47PM 41.0010 -103.0320 263° West 405 466 38,000  Level FlightAware
08:47PM 41.0000 -103.0420 262° West 406 467 38,000  Level FlightAware
08:48PM 40.9980 -103.0630 263° West 405 466 38,000  Level FlightAware
08:48PM 40.9960 -103.0830 262° West 405 466 38,000  Level FlightAware
08:48PM 40.9940 -103.1010 262° West 404 465 38,000  Level FlightAware
08:48PM 40.9930 -103.1140 264° West 404 465 38,000  Level FlightAware
08:48PM 40.9920 -103.1290 265° West 404 465 38,000  Level FlightAware
08:48PM 40.9880 -103.1690 262° West 403 464 38,000  Level FlightAware
08:48PM 40.9870 -103.1730 252° West 403 464 38,000  Level FlightAware
08:48PM 40.9870 -103.1840 270° West 403 464 38,000  Level FlightAware
08:49PM 40.9830 -103.2180 261° West 401 461 38,000  Level FlightAware
08:49PM 40.9810 -103.2470 265° West 401 461 38,000  Level FlightAware
08:49PM 40.9790 -103.2620 260° West 401 461 38,000  Level FlightAware
08:49PM 40.9770 -103.2860 264° West 400 460 38,000  Level FlightAware
08:49PM 40.9760 -103.2930 259° West 400 460 38,000  Level FlightAware
08:49PM 40.9750 -103.3090 265° West 400 460 38,000  Level FlightAware
08:49PM 40.9720 -103.3340 261° West 400 460 38,000  Level FlightAware
08:50PM 40.9700 -103.3540 262° West 400 460 38,000  Level FlightAware
08:50PM 40.9690 -103.3630 262° West 400 460 38,000  Level FlightAware
08:50PM 40.9670 -103.3830 262° West 400 460 38,000  Level FlightAware
08:50PM 40.9660 -103.4010 266° West 401 461 38,000  Level FlightAware
08:50PM 40.9640 -103.4150 259° West 401 461 38,000  Level FlightAware
08:50PM 40.9600 -103.4550 262° West 401 461 38,000  Level FlightAware
08:50PM 40.9600 -103.4640 270° West 400 460 38,000  Level FlightAware
08:50PM 40.9580 -103.4840 262° West 401 461 38,000  Level FlightAware
08:51PM 40.9560 -103.5040 262° West 401 461 38,000  Level FlightAware
08:51PM 40.9540 -103.5230 262° West 402 463 38,000  Level FlightAware
08:51PM 40.9520 -103.5410 262° West 402 463 38,000  Level FlightAware
08:51PM 40.9500 -103.5620 263° West 402 463 38,000  Level FlightAware
08:51PM 40.9490 -103.5700 261° West 402 463 38,000  Level FlightAware
08:51PM 40.9470 -103.5910 263° West 402 463 38,000  Level FlightAware
08:51PM 40.9450 -103.6100 262° West 401 461 38,000  Level FlightAware
08:51PM 40.9430 -103.6300 262° West 401 461 38,000  Level FlightAware
08:52PM 40.9420 -103.6400 262° West 401 461 38,000  Level FlightAware
08:52PM 40.9400 -103.6590 262° West 401 461 38,000  Level FlightAware
08:52PM 40.9390 -103.6780 266° West 401 461 38,000  Level FlightAware
08:52PM 40.9370 -103.6960 262° West 402 463 38,000  Level FlightAware
08:52PM 40.9360 -103.7060 262° West 402 463 38,000  Level FlightAware
08:52PM 40.9340 -103.7270 263° West 402 463 38,000  Level FlightAware
08:52PM 40.9320 -103.7460 262° West 403 464 38,000  Level FlightAware
08:52PM 40.9300 -103.7660 262° West 403 464 38,000  Level FlightAware
08:52PM 40.9290 -103.7740 261° West 404 465 38,000  Level FlightAware
08:53PM 40.9270 -103.7940 262° West 405 466 38,000  Level FlightAware
08:53PM 40.9260 -103.8100 265° West 406 467 38,000  Level FlightAware
08:53PM 40.9230 -103.8300 259° West 407 468 38,000  Level FlightAware
08:53PM 40.9220 -103.8410 263° West 407 468 38,000  Level FlightAware
08:53PM 40.9200 -103.8640 263° West 408 470 38,000  Level FlightAware
08:53PM 40.9180 -103.8840 262° West 408 470 38,000  Level FlightAware
08:53PM 40.9170 -103.8940 262° West 408 470 38,000  Level FlightAware
08:53PM 40.9160 -103.9070 264° West 408 470 38,000  Level FlightAware
08:54PM 40.9130 -103.9340 262° West 408 470 38,000  Level FlightAware
08:54PM 40.9110 -103.9550 263° West 408 470 38,000  Level FlightAware
08:54PM 40.9100 -103.9650 262° West 408 470 38,000  Level FlightAware
08:54PM 40.9080 -103.9830 262° West 407 468 38,000  Level FlightAware
08:54PM 40.9060 -103.9980 260° West 407 468 38,000  Level FlightAware
08:54PM 40.9050 -104.0130 265° West 407 468 38,000  Level FlightAware
08:54PM 40.9030 -104.0310 262° West 406 467 38,000  Level FlightAware
08:54PM 40.9010 -104.0520 263° West 406 467 38,000  Level FlightAware
08:54PM 40.8990 -104.0710 262° West 406 467 38,000  Level FlightAware
08:55PM 40.8980 -104.0820 263° West 406 467 38,000  Level FlightAware
08:55PM 40.8960 -104.1020 262° West 406 467 38,000  Level FlightAware
08:55PM 40.8940 -104.1220 262° West 406 467 38,000  Level FlightAware
08:55PM 40.8930 -104.1310 262° West 406 467 38,000  Level FlightAware
08:55PM 40.8910 -104.1540 263° West 406 467 38,000  Level FlightAware
08:55PM 40.8890 -104.1730 262° West 406 467 38,000  Level FlightAware
08:55PM 40.8860 -104.1930 259° West 406 467 38,000  Level FlightAware
08:55PM 40.8840 -104.2120 262° West 407 468 38,000  Level FlightAware
08:55PM 40.8830 -104.2230 263° West 407 468 38,000  Level FlightAware
08:56PM 40.8810 -104.2430 262° West 407 468 38,000  Level FlightAware
08:56PM 40.8790 -104.2640 263° West 407 468 38,000  Level FlightAware
08:56PM 40.8770 -104.2830 262° West 407 468 38,000  Level FlightAware
08:56PM 40.8770 -104.2880 270° West 407 468 38,000  Level FlightAware
08:56PM 40.8740 -104.3130 261° West 407 468 38,000  Level FlightAware
08:56PM 40.8720 -104.3270 259° West 407 468 38,000  Level FlightAware
08:56PM 40.8700 -104.3470 262° West 406 467 38,000  Level FlightAware
08:56PM 40.8690 -104.3570 262° West 406 467 38,000  Level FlightAware
08:57PM 40.8670 -104.3820 264° West 407 468 38,000  Level FlightAware
08:57PM 40.8650 -104.4000 262° West 407 468 38,000  Level FlightAware
08:57PM 40.8640 -104.4090 262° West 407 468 38,000  Level FlightAware
08:57PM 40.8620 -104.4290 262° West 407 468 38,000  Level FlightAware
08:57PM 40.8600 -104.4490 262° West 407 468 38,000  Level FlightAware
08:57PM 40.8570 -104.4680 258° West 407 468 38,000  Level FlightAware
08:57PM 40.8550 -104.4880 262° West 407 468 38,000  Level FlightAware
08:57PM 40.8540 -104.4980 262° West 407 468 38,000  Level FlightAware
08:57PM 40.8520 -104.5180 262° West 405 466 38,000  Level FlightAware
08:58PM 40.8500 -104.5380 262° West 405 466 38,000  Level FlightAware
08:58PM 40.8480 -104.5580 262° West 406 467 38,000  Level FlightAware
08:58PM 40.8470 -104.5680 262° West 406 467 38,000  Level FlightAware
08:58PM 40.8450 -104.5880 262° West 407 468 38,000  Level FlightAware
08:58PM 40.8430 -104.6070 262° West 408 470 38,000  Level FlightAware
08:58PM 40.8410 -104.6220 260° West 408 470 38,000  Level FlightAware
08:58PM 40.8400 -104.6330 263° West 408 470 38,000  Level FlightAware
08:58PM 40.8380 -104.6520 262° West 408 470 38,000  Level FlightAware
08:59PM 40.8360 -104.6710 262° West 407 468 38,000  Level FlightAware
08:59PM 40.8340 -104.6860 260° West 407 468 38,000  Level FlightAware
08:59PM 40.8320 -104.7040 262° West 407 468 38,000  Level FlightAware
08:59PM 40.8300 -104.7240 262° West 408 470 38,000  Level FlightAware
08:59PM 40.8280 -104.7400 261° West 408 470 38,000  Level FlightAware
08:59PM 40.8260 -104.7650 264° West 408 470 38,000  Level FlightAware
08:59PM 40.8250 -104.7740 262° West 408 470 38,000  Level FlightAware
08:59PM 40.8220 -104.7940 259° West 409 471 38,000  Level FlightAware
08:59PM 40.8210 -104.8090 265° West 409 471 38,000  Level FlightAware
09:00PM 40.8190 -104.8230 259° West 409 471 38,000  Level FlightAware
09:00PM 40.8170 -104.8440 263° West 410 472 38,000  Level FlightAware
09:00PM 40.8150 -104.8640 262° West 410 472 38,000  Level FlightAware
09:00PM 40.8140 -104.8730 262° West 410 472 38,000  Level FlightAware
09:00PM 40.8120 -104.8920 262° West 410 472 38,000  Level FlightAware
09:00PM 40.8090 -104.9120 259° West 410 472 38,000  Level FlightAware
09:00PM 40.8070 -104.9310 262° West 410 472 38,000  Level FlightAware
09:00PM 40.8050 -104.9510 262° West 410 472 38,000  Level FlightAware
09:00PM 40.8040 -104.9610 262° West 410 472 38,000  Level FlightAware
09:01PM 40.8010 -104.9860 261° West 410 472 38,000  Level FlightAware
09:01PM 40.7990 -105.0060 262° West 411 473 38,000  Level FlightAware
09:01PM 40.7980 -105.0170 263° West 411 473 38,000  Level FlightAware
09:01PM 40.7960 -105.0350 262° West 411 473 38,000  Level FlightAware
09:01PM 40.7940 -105.0560 263° West 411 473 38,000  Level FlightAware
09:01PM 40.7920 -105.0710 260° West 411 473 38,000  Level FlightAware
09:01PM 40.7910 -105.0810 262° West 411 473 38,000  Level FlightAware
09:01PM 40.7890 -105.1000 262° West 412 474 38,000  Level FlightAware
09:02PM 40.7860 -105.1210 259° West 413 475 38,000  Level FlightAware
09:02PM 40.7840 -105.1430 263° West 413 475 38,000  Level FlightAware
09:02PM 40.7830 -105.1550 264° West 413 475 38,000  Level FlightAware
09:02PM 40.7800 -105.1750 259° West 413 475 38,000  Level FlightAware
09:02PM 40.7790 -105.1910 265° West 413 475 38,000  Level FlightAware
09:02PM 40.7770 -105.2100 262° West 413 475 38,000  Level FlightAware
09:02PM 40.7750 -105.2200 255° West 414 476 38,000  Level FlightAware
09:02PM 40.7730 -105.2410 263° West 414 476 38,000  Level FlightAware
09:02PM 40.7710 -105.2540 259° West 414 476 38,000  Level FlightAware
09:03PM 40.7690 -105.2740 262° West 414 476 38,000  Level FlightAware
09:03PM 40.7670 -105.2940 262° West 414 476 38,000  Level FlightAware
09:03PM 40.7650 -105.3140 262° West 414 476 38,000  Level FlightAware
09:03PM 40.7620 -105.3330 258° West 413 475 38,000  Level FlightAware
09:03PM 40.7610 -105.3420 262° West 413 475 38,000  Level FlightAware
09:03PM 40.7590 -105.3650 263° West 413 475 38,000  Level FlightAware
09:03PM 40.7570 -105.3830 262° West 413 475 38,000  Level FlightAware
09:03PM 40.7550 -105.3930 255° West 414 476 38,000  Level FlightAware
09:04PM 40.7530 -105.4120 262° West 414 476 38,000  Level FlightAware
09:04PM 40.7510 -105.4330 263° West 414 476 38,000  Level FlightAware
09:04PM 40.7490 -105.4530 262° West 414 476 38,000  Level FlightAware
09:04PM 40.7460 -105.4740 259° West 413 475 38,000  Level FlightAware
09:04PM 40.7450 -105.4840 262° West 413 475 38,000  Level FlightAware
09:04PM 40.7430 -105.5040 262° West 414 476 38,000  Level FlightAware
09:04PM 40.7400 -105.5250 259° West 414 476 38,000  Level FlightAware
09:04PM 40.7380 -105.5440 262° West 414 476 38,000  Level FlightAware
09:04PM 40.7370 -105.5540 262° West 414 476 38,000  Level FlightAware
09:05PM 40.7350 -105.5740 262° West 413 475 38,000  Level FlightAware
09:05PM 40.7340 -105.5850 263° West 413 475 38,000  Level FlightAware
09:05PM 40.7310 -105.6040 258° West 413 475 38,000  Level FlightAware
09:05PM 40.7300 -105.6170 264° West 413 475 38,000  Level FlightAware
09:05PM 40.7270 -105.6410 261° West 412 474 38,000  Level FlightAware
09:05PM 40.7260 -105.6530 264° West 412 474 38,000  Level FlightAware
09:05PM 40.7210 -105.6940 261° West 411 473 38,000  Level FlightAware
09:06PM 40.7190 -105.7100 261° West 412 474 38,000  Level FlightAware
09:06PM 40.7160 -105.7330 260° West 411 473 38,000  Level FlightAware
09:06PM 40.7150 -105.7410 261° West 411 473 38,000  Level FlightAware
09:06PM 40.7130 -105.7620 263° West 411 473 38,000  Level FlightAware
09:06PM 40.7110 -105.7770 260° West 412 474 38,000  Level FlightAware
09:06PM 40.7070 -105.8140 262° West 413 475 38,000  Level FlightAware
09:06PM 40.7040 -105.8340 259° West 411 473 38,000  Level FlightAware
09:06PM 40.7020 -105.8530 262° West 412 474 38,000  Level FlightAware
09:07PM 40.7010 -105.8610 261° West 412 474 38,000  Level FlightAware
09:07PM 40.6990 -105.8810 262° West 412 474 38,000  Level FlightAware
09:07PM 40.6960 -105.9030 260° West 413 475 38,000  Level FlightAware
09:07PM 40.6940 -105.9200 261° West 412 474 38,000  Level FlightAware
09:07PM 40.6930 -105.9320 264° West 411 473 38,000  Level FlightAware
09:07PM 40.6910 -105.9490 261° West 412 474 38,000  Level FlightAware
09:07PM 40.6880 -105.9710 260° West 411 473 38,000  Level FlightAware
09:07PM 40.6860 -105.9900 262° West 412 474 38,000  Level FlightAware
09:07PM 40.6840 -106.0020 258° West 412 474 38,000  Level FlightAware
09:08PM 40.6820 -106.0210 262° West 412 474 38,000  Level FlightAware
09:08PM 40.6800 -106.0380 261° West 412 474 38,000  Level FlightAware
09:08PM 40.6770 -106.0600 260° West 412 474 38,000  Level FlightAware
09:08PM 40.6750 -106.0800 262° West 412 474 38,000  Level FlightAware
09:08PM 40.6740 -106.0890 262° West 413 475 38,000  Level FlightAware
09:08PM 40.6710 -106.1090 259° West 413 475 38,000  Level FlightAware
09:08PM 40.6690 -106.1310 263° West 412 474 38,000  Level FlightAware
09:08PM 40.6660 -106.1510 259° West 412 474 38,000  Level FlightAware
09:09PM 40.6660 -106.1560 270° West 413 475 38,000  Level FlightAware
09:09PM 40.6640 -106.1730 261° West 413 475 38,000  Level FlightAware
09:09PM 40.6610 -106.1960 260° West 413 475 38,000  Level FlightAware
09:09PM 40.6580 -106.2180 260° West 412 474 38,000  Level FlightAware
09:09PM 40.6570 -106.2270 262° West 412 474 38,000  Level FlightAware
09:09PM 40.6560 -106.2320 255° West 412 474 38,000  Level FlightAware
09:09PM 40.6530 -106.2570 261° West 412 474 38,000  Level FlightAware
09:09PM 40.6490 -106.2900 261° West 412 474 38,000  Level FlightAware
09:10PM 40.6420 -106.3440 260° West 412 474 38,000  Level FlightAware
09:10PM 40.6330 -106.4200 261° West 411 473 38,000  Level FlightAware
09:11PM 40.6190 -106.5290 260° West 411 473 38,000  Level FlightAware
09:12PM 40.6090 -106.6050 260° West 411 473 38,000  Level FlightAware
09:13PM 40.5790 -106.7530 255° West 407 468 38,000  Level FlightAware
09:13PM 40.5460 -106.8410 244° Southwest 410 472 38,000  Level FlightAware
09:13PM 40.5390 -106.8620 246° West 411 473 38,000  Level FlightAware
09:14PM 40.5130 -106.9510 249° West 412 474 38,000  Level FlightAware
09:16PM 40.4930 -107.1740 263° West 423 487 38,000  Level FlightAware
09:16PM 40.4910 -107.1870 259° West 423 487 38,000  Level FlightAware
09:16PM 40.4860 -107.2270 261° West 423 487 38,000  Level FlightAware
09:16PM 40.4810 -107.2700 261° West 423 487 38,000  Level FlightAware
09:16PM 40.4770 -107.3010 260° West 423 487 38,000  Level FlightAware
09:18PM 40.4540 -107.4780 260° West 422 486 38,000  Level FlightAware
09:18PM 40.4530 -107.4920 265° West 423 487 38,000  Level FlightAware
09:18PM 40.4360 -107.6230 260° West 423 487 38,000  Level FlightAware
09:19PM 40.4300 -107.6640 259° West 424 488 38,000  Level FlightAware
09:19PM 40.4270 -107.6880 261° West 425 489 38,000  Level FlightAware
09:20PM 40.4110 -107.8090 260° West 427 491 38,000  Level FlightAware
09:20PM 40.4040 -107.8630 260° West 428 493 38,000  Level FlightAware
09:20PM 40.4020 -107.8800 261° West 428 493 38,000  Level FlightAware
09:20PM 40.3980 -107.9090 260° West 429 494 38,000  Level FlightAware
09:21PM 40.3910 -107.9580 259° West 430 495 38,000  Level FlightAware
09:21PM 40.3840 -108.0100 260° West 430 495 38,000  Level FlightAware
09:21PM 40.3790 -108.0500 261° West 431 496 38,000  Level FlightAware
09:21PM 40.3750 -108.0810 260° West 431 496 38,000  Level FlightAware
09:22PM 40.3600 -108.1870 260° West 432 497 38,000  Level FlightAware
09:23PM 40.3530 -108.2390 260° West 433 498 38,000  Level FlightAware
09:23PM 40.3380 -108.3490 260° West 435 501 38,000  Level FlightAware
09:24PM 40.3310 -108.3990 260° West 436 502 38,000  Level FlightAware
09:24PM 40.3270 -108.4320 261° West 435 501 38,000  Level FlightAware
09:24PM 40.3220 -108.4670 259° West 434 499 38,000  Level FlightAware
09:25PM 40.3080 -108.5710 260° West 430 495 38,000  Level FlightAware
09:25PM 40.2990 -108.6300 259° West 430 495 38,000  Level FlightAware
09:25PM 40.2930 -108.6760 260° West 430 495 38,000  Level FlightAware
09:26PM 40.2870 -108.7160 259° West 431 496 38,000  Level FlightAware
09:27PM 40.2640 -108.8830 260° West 434 499 38,000  Level FlightAware
09:27PM 40.2600 -108.9080 258° West 434 499 38,000  Level FlightAware
09:27PM 40.2480 -108.9940 260° West 434 499 38,000  Level FlightAware
09:28PM 40.2260 -109.1430 259° West 432 497 38,000  Level FlightAware
09:29PM 40.2120 -109.2380 259° West 431 496 38,000  Level FlightAware
09:29PM 40.2020 -109.3110 260° West 430 495 38,000  Level FlightAware
09:30PM 40.1930 -109.3670 258° West 429 494 38,000  Level FlightAware
09:30PM 40.1880 -109.4060 260° West 430 495 38,000  Level FlightAware
09:30PM 40.1810 -109.4520 259° West 430 495 38,000  Level FlightAware
09:31PM 40.1780 -109.4740 260° West 429 494 38,000  Level FlightAware
09:31PM 40.1660 -109.5540 259° West 429 494 38,000  Level FlightAware
09:32PM 40.1550 -109.6240 258° West 430 495 38,000  Level FlightAware
09:32PM 40.1530 -109.6400 261° West 430 495 38,000  Level FlightAware
09:32PM 40.1410 -109.7220 259° West 433 498 38,000  Level FlightAware
09:33PM 40.1290 -109.8030 259° West 434 499 38,000  Level FlightAware
09:33PM 40.1190 -109.8630 258° West 436 502 38,000  Level FlightAware
09:33PM 40.1120 -109.9120 259° West 436 502 38,000  Level FlightAware
09:34PM 40.1080 -109.9390 259° West 436 502 38,000  Level FlightAware
09:34PM 40.1050 -109.9590 259° West 436 502 38,000  Level FlightAware
09:34PM 40.0960 -110.0160 258° West 436 502 38,000  Level FlightAware
09:35PM 40.0840 -110.0930 259° West 437 503 38,000  Level FlightAware
09:35PM 40.0630 -110.2290 259° West 439 505 38,000  Level FlightAware
09:36PM 40.0590 -110.2570 259° West 439 505 38,000  Level FlightAware
09:36PM 40.0560 -110.2770 259° West 439 505 38,000  Level FlightAware
09:36PM 40.0490 -110.3240 259° West 439 505 38,000  Level FlightAware
09:36PM 40.0390 -110.3870 258° West 439 505 38,000  Level FlightAware
09:37PM 40.0350 -110.4100 257° West 438 504 38,000  Level FlightAware
09:37PM 40.0240 -110.4840 259° West 438 504 38,000  Level FlightAware
09:37PM 40.0220 -110.4960 258° West 438 504 38,000  Level FlightAware
09:37PM 40.0180 -110.5210 258° West 437 503 38,000  Level FlightAware
09:37PM 40.0140 -110.5470 259° West 437 503 38,000  Level FlightAware
09:38PM 39.9940 -110.6720 258° West 436 502 38,000  Level FlightAware
09:39PM 39.9862 -110.7210 258° West 436 502 38,000  Level FlightAware ADS-B
09:39PM 39.9812 -110.7530 258° West 435 501 38,000  Level FlightAware ADS-B
09:39PM 39.9804 -110.7580 258° West 435 501 38,000  Level FlightAware ADS-B
09:39PM 39.9798 -110.7610 255° West 435 501 38,000  Level FlightAware ADS-B
09:39PM 39.9766 -110.7810 258° West 434 499 38,000  Level FlightAware ADS-B
09:39PM 39.9764 -110.7830 263° West 434 499 38,000  Level FlightAware ADS-B
09:39PM 39.9742 -110.7960 258° West 434 499 38,000  Level FlightAware ADS-B
09:40PM 39.9455 -110.9730 258° West 434 499 38,000  Level FlightAware ADS-B
09:41PM 39.9333 -111.0470 258° West 436 502 38,000  Level FlightAware ADS-B
09:41PM 39.9330 -111.0500 263° West 436 502 38,000  Level FlightAware ADS-B
09:41PM 39.9303 -111.0660 258° West 436 502 38,000  Level FlightAware ADS-B
09:41PM 39.9290 -111.0740 258° West 437 503 38,000  Level FlightAware ADS-B
09:41PM 39.9238 -111.1060 258° West 437 503 38,000  Level FlightAware ADS-B
09:41PM 39.9238 -111.1060 258° West 436 502 38,000  Level FlightAware ADS-B
09:41PM 39.9192 -111.1330 257° West 436 502 38,000  Level FlightAware ADS-B
09:41PM 39.9186 -111.1370 259° West 436 502 38,000  Level FlightAware ADS-B
09:41PM 39.9185 -111.1380 263° West 436 502 38,000  Level FlightAware ADS-B
09:41PM 39.9173 -111.1450 257° West 437 503 38,000  Level FlightAware ADS-B
09:41PM 39.9167 -111.1490 259° West 436 502 38,000  Level FlightAware ADS-B
09:42PM 39.9040 -111.2290 258° West 437 503 38,000  Level FlightAware
09:43PM 39.8810 -111.3650 258° West 439 505 38,000  Level FlightAware
09:43PM 39.8788 -111.3810 260° West 439 505 38,000  Level FlightAware ADS-B
09:43PM 39.8784 -111.3840 260° West 440 506 38,000  Level FlightAware ADS-B
09:43PM 39.8775 -111.3890 257° West 440 506 38,000  Level FlightAware ADS-B
09:43PM 39.8764 -111.3960 258° West 440 506 38,000  Level FlightAware ADS-B
09:43PM 39.8761 -111.3980 259° West 440 506 38,000  Level FlightAware ADS-B
09:43PM 39.8759 -111.3990 255° West 440 506 38,000  Level FlightAware ADS-B
09:43PM 39.8728 -111.4180 258° West 440 506 38,000  Level FlightAware ADS-B
09:43PM 39.8713 -111.4260 256° West 440 506 38,000  Level FlightAware ADS-B
09:43PM 39.8709 -111.4290 260° West 440 506 38,000  Level FlightAware ADS-B
09:43PM 39.8678 -111.4480 258° West 440 506 38,000  Level FlightAware ADS-B
09:43PM 39.8660 -111.4580 257° West 440 506 38,000  Level FlightAware ADS-B
09:43PM 39.8654 -111.4620 259° West 440 506 38,000  Level FlightAware ADS-B
09:43PM 39.8652 -111.4630 255° West 440 506 38,000  Level FlightAware ADS-B
09:43PM 39.8650 -111.4640 255° West 441 507 38,000  Level FlightAware ADS-B
09:43PM 39.8641 -111.4700 259° West 441 507 38,000  Level FlightAware ADS-B
09:44PM 39.8629 -111.4770 257° West 441 507 38,000  Level FlightAware ADS-B
09:44PM 39.8622 -111.4810 257° West 441 507 38,000  Level FlightAware ADS-B
09:44PM 39.8618 -111.4840 260° West 441 507 38,000  Level FlightAware ADS-B
09:44PM 39.8605 -111.4920 258° West 441 507 38,000  Level FlightAware ADS-B
09:44PM 39.8490 -111.5620 258° West 441 507 38,000  Level FlightAware
09:44PM 39.8380 -111.6240 257° West 441 507 38,000  Level FlightAware
09:45PM 39.8240 -111.7090 258° West 443 510 38,000  Level FlightAware ADS-B
09:45PM 39.8238 -111.7100 255° West 443 510 38,000  Level FlightAware ADS-B
09:45PM 39.8235 -111.7120 259° West 443 510 38,000  Level FlightAware ADS-B
09:45PM 39.8226 -111.7170 257° West 443 510 38,000  Level FlightAware ADS-B
09:45PM 39.8213 -111.7250 258° West 443 510 38,000  Level FlightAware ADS-B
09:45PM 39.8190 -111.7390 258° West 443 510 38,000  Level FlightAware ADS-B
09:45PM 39.8185 -111.7410 252° West 443 510 38,000  Level FlightAware ADS-B
09:45PM 39.8171 -111.7500 259° West 443 510 38,000  Level FlightAware ADS-B
09:45PM 39.8157 -111.7580 257° West 443 510 38,000  Level FlightAware ADS-B
09:45PM 39.8145 -111.7650 257° West 443 510 38,000  Level FlightAware ADS-B
09:45PM 39.8139 -111.7690 259° West 443 510 38,000  Level FlightAware ADS-B
09:45PM 39.8138 -111.7700 263° West 443 510 38,000  Level FlightAware ADS-B
09:45PM 39.8127 -111.7760 257° West 443 510 38,000  Level FlightAware ADS-B
09:46PM 39.8024 -111.8370 258° West 442 509 38,000  Level FlightAware ADS-B
09:46PM 39.8009 -111.8460 258° West 442 509 38,000  Level FlightAware ADS-B
09:46PM 39.7850 -111.9390 257° West 442 509 38,000  Level FlightAware
09:47PM 39.7641 -112.0600 257° West 445 512 38,000  Level FlightAware ADS-B
09:47PM 39.7636 -112.0630 258° West 445 512 38,000  Level FlightAware ADS-B
09:47PM 39.7630 -112.0660 255° West 445 512 38,000  Level FlightAware ADS-B
09:47PM 39.7625 -112.0690 258° West 445 512 38,000  Level FlightAware ADS-B
09:47PM 39.7617 -112.0740 258° West 445 512 38,000  Level FlightAware ADS-B
09:47PM 39.7591 -112.0880 256° West 445 512 38,000  Level FlightAware ADS-B
09:47PM 39.7576 -112.0980 259° West 445 512 38,000  Level FlightAware ADS-B
09:47PM 39.7566 -112.1030 255° West 445 512 38,000  Level FlightAware ADS-B
09:48PM 39.7548 -112.1140 258° West 445 512 38,000  Level FlightAware ADS-B
09:48PM 39.7539 -112.1190 257° West 445 512 38,000  Level FlightAware ADS-B
09:48PM 39.7497 -112.1430 257° West 445 512 38,000  Level FlightAware ADS-B
09:48PM 39.7469 -112.1590 257° West 445 512 38,000  Level FlightAware ADS-B
09:48PM 39.7464 -112.1620 258° West 445 512 38,000  Level FlightAware ADS-B
09:48PM 39.7443 -112.1730 256° West 444 511 38,000  Level FlightAware ADS-B
09:48PM 39.7429 -112.1820 259° West 444 511 38,000  Level FlightAware ADS-B
09:48PM 39.7415 -112.1900 257° West 444 511 38,000  Level FlightAware ADS-B
09:48PM 39.7413 -112.1910 255° West 444 511 38,000  Level FlightAware ADS-B
09:48PM 39.7409 -112.1930 255° West 445 512 38,000  Level FlightAware ADS-B
09:49PM 39.7180 -112.3230 257° West 444 511 38,000  Level FlightAware
09:49PM 39.7049 -112.4030 258° West 446 513 38,000  Level FlightAware ADS-B
09:49PM 39.7035 -112.4110 257° West 446 513 38,000  Level FlightAware ADS-B
09:50PM 39.7017 -112.4210 257° West 446 513 38,000  Level FlightAware ADS-B
09:50PM 39.7014 -112.4230 259° West 446 513 38,000  Level FlightAware ADS-B
09:50PM 39.7008 -112.4270 259° West 446 513 38,000  Level FlightAware ADS-B
09:50PM 39.7005 -112.4280 249° West 446 513 38,000  Level FlightAware ADS-B
09:50PM 39.6947 -112.4610 257° West 445 512 38,000  Level FlightAware ADS-B
09:50PM 39.6935 -112.4680 257° West 445 512 38,000  Level FlightAware ADS-B
09:50PM 39.6926 -112.4730 257° West 445 512 38,000  Level FlightAware ADS-B
09:50PM 39.6899 -112.4880 257° West 445 512 38,000  Level FlightAware ADS-B
09:50PM 39.6899 -112.4880 257° West 444 511 38,000  Level FlightAware ADS-B
09:50PM 39.6859 -112.5110 257° West 444 511 38,000  Level FlightAware ADS-B
09:50PM 39.6849 -112.5170 258° West 444 511 38,000  Level FlightAware ADS-B
09:50PM 39.6841 -112.5220 258° West 444 511 38,000  Level FlightAware ADS-B
09:50PM 39.6838 -112.5230 249° West 444 511 38,000  Level FlightAware ADS-B
09:50PM 39.6822 -112.5320 257° West 444 511 38,000  Level FlightAware ADS-B
09:50PM 39.6819 -112.5330 249° West 444 511 38,000  Level FlightAware ADS-B
09:50PM 39.6802 -112.5430 258° West 444 511 38,000  Level FlightAware ADS-B
09:50PM 39.6781 -112.5550 257° West 444 511 38,000  Level FlightAware ADS-B
09:52PM 39.6471 -112.7290 257° West 441 507 38,000  Level FlightAware ADS-B
09:52PM 39.6461 -112.7350 258° West 441 507 38,000  Level FlightAware ADS-B
09:52PM 39.6461 -112.7350 258° West 442 509 38,000  Level FlightAware ADS-B
09:52PM 39.6437 -112.7480 257° West 441 507 38,000  Level FlightAware ADS-B
09:52PM 39.6419 -112.7580 257° West 441 507 38,000  Level FlightAware ADS-B
09:52PM 39.6416 -112.7600 259° West 441 507 38,000  Level FlightAware ADS-B
09:52PM 39.6400 -112.7690 257° West 441 507 38,000  Level FlightAware ADS-B
09:52PM 39.6358 -112.7920 257° West 441 507 38,000  Level FlightAware ADS-B
09:52PM 39.6349 -112.7970 257° West 441 507 38,000  Level FlightAware ADS-B
09:52PM 39.6307 -112.8210 257° West 441 507 38,000  Level FlightAware ADS-B
09:52PM 39.6307 -112.8210 257° West 440 506 38,000  Level FlightAware ADS-B
09:52PM 39.6280 -112.8360 257° West 439 505 38,000  Level FlightAware ADS-B
09:52PM 39.6223 -112.8670 257° West 440 506 38,000  Level FlightAware ADS-B
09:52PM 39.6203 -112.8780 257° West 440 506 38,000  Level FlightAware ADS-B
09:53PM 39.6188 -112.8860 256° West 440 506 38,000  Level FlightAware ADS-B
09:54PM 39.5874 -113.0600 257° West 440 506 38,000  Level FlightAware ADS-B
09:54PM 39.5795 -113.1030 257° West 439 505 38,000  Level FlightAware ADS-B
09:54PM 39.5697 -113.1570 257° West 440 506 38,000  Level FlightAware ADS-B
09:54PM 39.5652 -113.1810 256° West 440 506 38,000  Level FlightAware ADS-B
09:54PM 39.5649 -113.1830 259° West 440 506 38,000  Level FlightAware ADS-B
09:55PM 39.5576 -113.2230 257° West 440 506 38,000  Level FlightAware ADS-B
09:55PM 39.5464 -113.2869 257° West 439 505 38,000  Level Salt Lake Center
09:56PM 39.5181 -113.4414 257° West 441 507 38,000  Level Salt Lake Center
09:57PM 39.4894 -113.5950 256° West 442 509 38,000  Level Salt Lake Center
09:58PM 39.4603 -113.7506 256° West 446 513 38,000  Level Salt Lake Center
09:59PM 39.4314 -113.9053 256° West 445 512 38,000  Level Salt Lake Center
10:00PM 39.4011 -114.0611 256° West 448 516 38,000  Level Salt Lake Center
10:01PM 39.3714 -114.2161 256° West 447 514 38,000  Level Salt Lake Center
10:02PM 39.3356 -114.4000 256° West 448 516 38,000  Level Salt Lake Center
10:03PM 39.3064 -114.5472 256° West 446 513 38,000  Level Salt Lake Center
10:04PM 39.2761 -114.6969 255° West 447 514 38,000  Level Salt Lake Center
10:05PM 39.2419 -114.8708 256° West 447 514 38,000  Level Salt Lake Center
10:06PM 39.2125 -115.0197 256° West 448 516 38,000  Level Salt Lake Center
10:08PM 39.1786 -115.1919 256° West 444 511 38,000  Level Salt Lake Center
10:09PM 39.1486 -115.3422 256° West 448 516 38,000  Level Salt Lake Center
10:10PM 39.1156 -115.4972 255° West 454 522 38,000  Level Salt Lake Center
10:11PM 39.0833 -115.6525 255° West 450 518 38,000  Level Salt Lake Center
10:12PM 39.0522 -115.8072 256° West 450 518 38,000  Level Salt Lake Center
10:13PM 39.0206 -115.9614 255° West 448 516 38,000  Level Salt Lake Center
10:14PM 38.9808 -116.1444 254° West 444 511 38,000  Level Salt Lake Center
10:15PM 38.9478 -116.2983 255° West 447 514 38,000  Level Salt Lake Center
10:16PM 38.9161 -116.4503 255° West 444 511 38,000  Level Salt Lake Center
10:17PM 38.8836 -116.6011 255° West 441 507 38,000  Level Salt Lake Center
10:18PM 38.8503 -116.7544 254° West 446 513 38,000  Level Salt Lake Center
10:19PM 38.8167 -116.9072 254° West 447 514 38,000  Level Salt Lake Center
10:20PM 38.7842 -117.0600 255° West 447 514 38,000  Level Salt Lake Center
10:21PM 38.7500 -117.2117 254° West 446 513 38,000  Level Salt Lake Center
10:22PM 38.7103 -117.3942 254° West 447 514 38,000 -240 Level Salt Lake Center
10:23PM 38.6764 -117.5450 254° West 444 511 37,600 -720 Descending Salt Lake Center
10:24PM 38.6428 -117.6947 254° West 442 509 36,600 -1,020 Descending Salt Lake Center
10:25PM 38.6072 -117.8453 253° West 444 511 35,600 -960 Descending Salt Lake Center
10:26PM 38.5819 -117.9981 258° West 449 517 34,700 -960 Descending Salt Lake Center
10:27PM 38.6167 -118.1450 287° West 435 501 33,700 -960 Descending Salt Lake Center
10:28PM 38.6622 -118.2900 292° West 438 504 32,800 -1,020 Descending Salt Lake Center
10:29PM 38.7236 -118.4875 292° West 444 511 31,500 -1,620 Descending Oakland Center
10:30PM 38.7686 -118.6344 291° West 442 509 29,200 -2,340 Descending Oakland Center
10:31PM 38.8119 -118.7758 292° West 430 495 26,800 -2,340 Descending Oakland Center
10:32PM 38.8531 -118.9131 291° West 415 478 24,500 -2,220 Descending Oakland Center
10:33PM 38.8928 -119.0447 291° West 399 459 22,300 -2,100 Descending Oakland Center
10:34PM 38.9308 -119.1725 291° West 386 444 20,200 -1,980 Descending Oakland Center
10:35PM 38.9675 -119.2944 291° West 371 427 18,300 -2,040 Descending Oakland Center
10:36PM 39.0019 -119.4117 291° West 355 409 16,100 -1,860 Descending Oakland Center
10:37PM 39.0364 -119.5272 291° West 348 400 14,500 -1,440 Descending Oakland Center
10:38PM 39.0731 -119.6500 291° West 325 374 13,200 -1,080 Descending Oakland Center
10:39PM 39.1019 -119.7458 291° West 304 350 12,400 -1,140 Descending Oakland Center
10:40PM 39.1661 -119.7725 342° North 279 321 11,000 -1,200 Descending Oakland Center
10:41PM 39.2397 -119.7694 North 273 314 10,000 -1,320 Descending Oakland Center
10:43PM 39.3047 -119.7697 360° North 257 296 8,400 -900 Descending Oakland Center
10:44PM 39.3656 -119.7686 North 252 290 8,200 -1,020 Descending Oakland Center
10:44PM 39.3833 -119.7667 North 164 189 6,600 -1,500 Descending Northern Cal TRACON
10:45PM 39.4333 -119.7667 360° North 166 191 5,600 -960 Descending Northern Cal TRACON
10:46PM 39.4667 -119.7667 360° North 161 185 4,700 -900 Descending Northern Cal TRACON
10:48PM 39.4833 -119.7667 North  Level FlightAware Approximate
10:55PM 39.4991 -119.7681 North  Level Estimated